<?xml version="1.0" encoding="UTF-8" standalone="no" ?>
<gpx xmlns="http://www.topografix.com/GPX/1/1" xmlns:xsi="http://www.w3.org/2001/XMLSchema-instance" xsi:schemaLocation="http://www.topografix.com/GPX/1/1 http://www.topografix.com/GPX/1/1/gpx.xsd" version="1.1" creator="VisuGPX - https://www.visugpx.com">
  <metadata>
    <name>Course à pied dans l'après-midi</name>
  </metadata>
  <trk>
    <name><![CDATA[Course à pied dans l'après-midi_1]]></name>
    <trkseg>
      <trkpt lat="48.67889" lon="7.24026">
        <ele>508.2</ele>
        <time>2023-11-29T14:50:58Z</time>
      </trkpt>
      <trkpt lat="48.67893" lon="7.2403">
        <ele>508.7</ele>
        <time>2023-11-29T14:51:02Z</time>
      </trkpt>
      <trkpt lat="48.679" lon="7.24055">
        <ele>510.6</ele>
        <time>2023-11-29T14:51:16Z</time>
      </trkpt>
      <trkpt lat="48.67904" lon="7.24067">
        <ele>511.4</ele>
        <time>2023-11-29T14:51:23Z</time>
      </trkpt>
      <trkpt lat="48.67903" lon="7.24095">
        <ele>512.6</ele>
        <time>2023-11-29T14:51:35Z</time>
      </trkpt>
      <trkpt lat="48.67906" lon="7.24123">
        <ele>512.9</ele>
        <time>2023-11-29T14:51:45Z</time>
      </trkpt>
      <trkpt lat="48.67913" lon="7.24152">
        <ele>512.1</ele>
        <time>2023-11-29T14:51:54Z</time>
      </trkpt>
      <trkpt lat="48.67916" lon="7.24157">
        <ele>511.7</ele>
        <time>2023-11-29T14:51:56Z</time>
      </trkpt>
      <trkpt lat="48.67933" lon="7.24168">
        <ele>509.6</ele>
        <time>2023-11-29T14:52:05Z</time>
      </trkpt>
      <trkpt lat="48.67951" lon="7.24166">
        <ele>507</ele>
        <time>2023-11-29T14:52:13Z</time>
      </trkpt>
      <trkpt lat="48.67967" lon="7.24177">
        <ele>504.5</ele>
        <time>2023-11-29T14:52:20Z</time>
      </trkpt>
      <trkpt lat="48.67968" lon="7.24205">
        <ele>502.2</ele>
        <time>2023-11-29T14:52:27Z</time>
      </trkpt>
      <trkpt lat="48.67961" lon="7.24233">
        <ele>500.9</ele>
        <time>2023-11-29T14:52:34Z</time>
      </trkpt>
      <trkpt lat="48.67954" lon="7.24259">
        <ele>500.7</ele>
        <time>2023-11-29T14:52:45Z</time>
      </trkpt>
      <trkpt lat="48.67945" lon="7.24283">
        <ele>501.1</ele>
        <time>2023-11-29T14:52:54Z</time>
      </trkpt>
      <trkpt lat="48.67933" lon="7.24303">
        <ele>501.6</ele>
        <time>2023-11-29T14:53:02Z</time>
      </trkpt>
      <trkpt lat="48.67929" lon="7.2431">
        <ele>501.8</ele>
        <time>2023-11-29T14:53:07Z</time>
      </trkpt>
      <trkpt lat="48.67914" lon="7.24325">
        <ele>502.9</ele>
        <time>2023-11-29T14:53:18Z</time>
      </trkpt>
      <trkpt lat="48.67897" lon="7.24338">
        <ele>504.8</ele>
        <time>2023-11-29T14:53:26Z</time>
      </trkpt>
      <trkpt lat="48.67879" lon="7.24343">
        <ele>506.8</ele>
        <time>2023-11-29T14:53:33Z</time>
      </trkpt>
      <trkpt lat="48.67859" lon="7.24342">
        <ele>508.5</ele>
        <time>2023-11-29T14:53:40Z</time>
      </trkpt>
      <trkpt lat="48.6784" lon="7.24341">
        <ele>509.5</ele>
        <time>2023-11-29T14:53:47Z</time>
      </trkpt>
      <trkpt lat="48.67822" lon="7.2434">
        <ele>510.2</ele>
        <time>2023-11-29T14:53:54Z</time>
      </trkpt>
      <trkpt lat="48.67806" lon="7.24354">
        <ele>510.4</ele>
        <time>2023-11-29T14:54:04Z</time>
      </trkpt>
      <trkpt lat="48.67797" lon="7.2438">
        <ele>510.7</ele>
        <time>2023-11-29T14:54:16Z</time>
      </trkpt>
      <trkpt lat="48.67789" lon="7.24406">
        <ele>510.9</ele>
        <time>2023-11-29T14:54:25Z</time>
      </trkpt>
      <trkpt lat="48.67782" lon="7.24434">
        <ele>511</ele>
        <time>2023-11-29T14:54:35Z</time>
      </trkpt>
      <trkpt lat="48.6777" lon="7.24454">
        <ele>510.5</ele>
        <time>2023-11-29T14:54:42Z</time>
      </trkpt>
      <trkpt lat="48.67753" lon="7.24468">
        <ele>509.5</ele>
        <time>2023-11-29T14:54:50Z</time>
      </trkpt>
      <trkpt lat="48.67733" lon="7.24475">
        <ele>507.6</ele>
        <time>2023-11-29T14:54:57Z</time>
      </trkpt>
      <trkpt lat="48.67718" lon="7.2446">
        <ele>504.3</ele>
        <time>2023-11-29T14:55:07Z</time>
      </trkpt>
      <trkpt lat="48.67699" lon="7.24468">
        <ele>501.7</ele>
        <time>2023-11-29T14:55:14Z</time>
      </trkpt>
      <trkpt lat="48.67685" lon="7.24483">
        <ele>500.4</ele>
        <time>2023-11-29T14:55:23Z</time>
      </trkpt>
      <trkpt lat="48.67676" lon="7.24508">
        <ele>499</ele>
        <time>2023-11-29T14:55:32Z</time>
      </trkpt>
      <trkpt lat="48.67662" lon="7.24527">
        <ele>497.2</ele>
        <time>2023-11-29T14:55:41Z</time>
      </trkpt>
      <trkpt lat="48.67645" lon="7.24545">
        <ele>495.2</ele>
        <time>2023-11-29T14:55:49Z</time>
      </trkpt>
      <trkpt lat="48.67631" lon="7.24566">
        <ele>493.2</ele>
        <time>2023-11-29T14:55:56Z</time>
      </trkpt>
      <trkpt lat="48.67619" lon="7.2459">
        <ele>490.9</ele>
        <time>2023-11-29T14:56:04Z</time>
      </trkpt>
      <trkpt lat="48.67609" lon="7.24618">
        <ele>488.2</ele>
        <time>2023-11-29T14:56:12Z</time>
      </trkpt>
      <trkpt lat="48.67601" lon="7.24642">
        <ele>485.6</ele>
        <time>2023-11-29T14:56:19Z</time>
      </trkpt>
      <trkpt lat="48.67593" lon="7.24669">
        <ele>483</ele>
        <time>2023-11-29T14:56:27Z</time>
      </trkpt>
      <trkpt lat="48.67586" lon="7.24686">
        <ele>481.5</ele>
        <time>2023-11-29T14:56:33Z</time>
      </trkpt>
      <trkpt lat="48.67576" lon="7.24714">
        <ele>479.7</ele>
        <time>2023-11-29T14:56:40Z</time>
      </trkpt>
      <trkpt lat="48.67572" lon="7.24745">
        <ele>477.9</ele>
        <time>2023-11-29T14:56:49Z</time>
      </trkpt>
      <trkpt lat="48.67566" lon="7.24775">
        <ele>476.4</ele>
        <time>2023-11-29T14:56:55Z</time>
      </trkpt>
      <trkpt lat="48.67565" lon="7.24804">
        <ele>475.5</ele>
        <time>2023-11-29T14:57:03Z</time>
      </trkpt>
      <trkpt lat="48.67569" lon="7.24833">
        <ele>475.1</ele>
        <time>2023-11-29T14:57:10Z</time>
      </trkpt>
      <trkpt lat="48.67573" lon="7.24862">
        <ele>474.7</ele>
        <time>2023-11-29T14:57:17Z</time>
      </trkpt>
      <trkpt lat="48.67574" lon="7.24893">
        <ele>473.5</ele>
        <time>2023-11-29T14:57:24Z</time>
      </trkpt>
      <trkpt lat="48.67569" lon="7.24921">
        <ele>471.6</ele>
        <time>2023-11-29T14:57:30Z</time>
      </trkpt>
      <trkpt lat="48.67567" lon="7.2495">
        <ele>470.2</ele>
        <time>2023-11-29T14:57:38Z</time>
      </trkpt>
      <trkpt lat="48.67554" lon="7.24976">
        <ele>470.1</ele>
        <time>2023-11-29T14:57:45Z</time>
      </trkpt>
      <trkpt lat="48.67543" lon="7.24997">
        <ele>472</ele>
        <time>2023-11-29T14:57:53Z</time>
      </trkpt>
      <trkpt lat="48.6753" lon="7.25019">
        <ele>474.2</ele>
        <time>2023-11-29T14:58:03Z</time>
      </trkpt>
      <trkpt lat="48.67518" lon="7.25039">
        <ele>474.9</ele>
        <time>2023-11-29T14:58:15Z</time>
      </trkpt>
      <trkpt lat="48.67516" lon="7.2504">
        <ele>474.9</ele>
        <time>2023-11-29T14:58:16Z</time>
      </trkpt>
      <trkpt lat="48.67501" lon="7.2506">
        <ele>474.8</ele>
        <time>2023-11-29T14:58:26Z</time>
      </trkpt>
      <trkpt lat="48.6749" lon="7.25081">
        <ele>474.9</ele>
        <time>2023-11-29T14:58:34Z</time>
      </trkpt>
      <trkpt lat="48.67478" lon="7.25108">
        <ele>476.1</ele>
        <time>2023-11-29T14:58:45Z</time>
      </trkpt>
      <trkpt lat="48.67462" lon="7.25122">
        <ele>477.6</ele>
        <time>2023-11-29T14:58:52Z</time>
      </trkpt>
      <trkpt lat="48.67444" lon="7.25133">
        <ele>478.9</ele>
        <time>2023-11-29T14:58:59Z</time>
      </trkpt>
      <trkpt lat="48.67428" lon="7.25152">
        <ele>480.1</ele>
        <time>2023-11-29T14:59:09Z</time>
      </trkpt>
      <trkpt lat="48.67416" lon="7.25173">
        <ele>481.5</ele>
        <time>2023-11-29T14:59:19Z</time>
      </trkpt>
      <trkpt lat="48.67402" lon="7.25192">
        <ele>482.5</ele>
        <time>2023-11-29T14:59:27Z</time>
      </trkpt>
      <trkpt lat="48.67392" lon="7.25218">
        <ele>482.9</ele>
        <time>2023-11-29T14:59:36Z</time>
      </trkpt>
      <trkpt lat="48.67382" lon="7.25241">
        <ele>483.2</ele>
        <time>2023-11-29T14:59:45Z</time>
      </trkpt>
      <trkpt lat="48.67368" lon="7.25264">
        <ele>484</ele>
        <time>2023-11-29T14:59:53Z</time>
      </trkpt>
      <trkpt lat="48.67354" lon="7.25282">
        <ele>485.7</ele>
        <time>2023-11-29T15:00:02Z</time>
      </trkpt>
      <trkpt lat="48.67341" lon="7.25302">
        <ele>487.6</ele>
        <time>2023-11-29T15:00:11Z</time>
      </trkpt>
      <trkpt lat="48.67328" lon="7.25325">
        <ele>489.3</ele>
        <time>2023-11-29T15:00:20Z</time>
      </trkpt>
      <trkpt lat="48.67323" lon="7.25352">
        <ele>490.1</ele>
        <time>2023-11-29T15:00:27Z</time>
      </trkpt>
      <trkpt lat="48.6732" lon="7.25383">
        <ele>492.5</ele>
        <time>2023-11-29T15:00:37Z</time>
      </trkpt>
      <trkpt lat="48.67315" lon="7.25397">
        <ele>493</ele>
        <time>2023-11-29T15:00:41Z</time>
      </trkpt>
      <trkpt lat="48.67305" lon="7.25419">
        <ele>493.8</ele>
        <time>2023-11-29T15:06:34Z</time>
      </trkpt>
      <trkpt lat="48.673" lon="7.25437">
        <ele>494.4</ele>
        <time>2023-11-29T15:06:46Z</time>
      </trkpt>
      <trkpt lat="48.67289" lon="7.25461">
        <ele>495.6</ele>
        <time>2023-11-29T15:06:54Z</time>
      </trkpt>
      <trkpt lat="48.67278" lon="7.25482">
        <ele>497</ele>
        <time>2023-11-29T15:07:04Z</time>
      </trkpt>
      <trkpt lat="48.67265" lon="7.25503">
        <ele>498.4</ele>
        <time>2023-11-29T15:07:12Z</time>
      </trkpt>
      <trkpt lat="48.67251" lon="7.25523">
        <ele>499.8</ele>
        <time>2023-11-29T15:07:21Z</time>
      </trkpt>
      <trkpt lat="48.67241" lon="7.25547">
        <ele>501.1</ele>
        <time>2023-11-29T15:07:33Z</time>
      </trkpt>
      <trkpt lat="48.67235" lon="7.25573">
        <ele>502.3</ele>
        <time>2023-11-29T15:07:43Z</time>
      </trkpt>
      <trkpt lat="48.67227" lon="7.25595">
        <ele>503.3</ele>
        <time>2023-11-29T15:07:55Z</time>
      </trkpt>
      <trkpt lat="48.67226" lon="7.25595">
        <ele>503.4</ele>
        <time>2023-11-29T15:07:56Z</time>
      </trkpt>
      <trkpt lat="48.67208" lon="7.25599">
        <ele>504.8</ele>
        <time>2023-11-29T15:08:06Z</time>
      </trkpt>
      <trkpt lat="48.67187" lon="7.256">
        <ele>506.5</ele>
        <time>2023-11-29T15:08:17Z</time>
      </trkpt>
      <trkpt lat="48.67167" lon="7.25595">
        <ele>507.9</ele>
        <time>2023-11-29T15:08:25Z</time>
      </trkpt>
      <trkpt lat="48.67149" lon="7.25597">
        <ele>508.4</ele>
        <time>2023-11-29T15:08:36Z</time>
      </trkpt>
      <trkpt lat="48.67131" lon="7.25604">
        <ele>508.7</ele>
        <time>2023-11-29T15:08:46Z</time>
      </trkpt>
      <trkpt lat="48.67118" lon="7.25618">
        <ele>508.9</ele>
        <time>2023-11-29T15:08:56Z</time>
      </trkpt>
      <trkpt lat="48.67115" lon="7.25621">
        <ele>508.9</ele>
        <time>2023-11-29T15:08:57Z</time>
      </trkpt>
      <trkpt lat="48.67102" lon="7.25619">
        <ele>509.1</ele>
        <time>2023-11-29T15:09:43Z</time>
      </trkpt>
      <trkpt lat="48.67106" lon="7.25616">
        <ele>509.1</ele>
        <time>2023-11-29T15:09:49Z</time>
      </trkpt>
      <trkpt lat="48.6709" lon="7.25631">
        <ele>509.2</ele>
        <time>2023-11-29T15:10:03Z</time>
      </trkpt>
      <trkpt lat="48.67075" lon="7.25649">
        <ele>509.2</ele>
        <time>2023-11-29T15:10:13Z</time>
      </trkpt>
      <trkpt lat="48.6706" lon="7.25665">
        <ele>509.3</ele>
        <time>2023-11-29T15:10:23Z</time>
      </trkpt>
      <trkpt lat="48.67044" lon="7.25688">
        <ele>509</ele>
        <time>2023-11-29T15:10:31Z</time>
      </trkpt>
      <trkpt lat="48.67029" lon="7.25707">
        <ele>508.9</ele>
        <time>2023-11-29T15:10:39Z</time>
      </trkpt>
      <trkpt lat="48.67019" lon="7.25732">
        <ele>508.9</ele>
        <time>2023-11-29T15:10:48Z</time>
      </trkpt>
      <trkpt lat="48.67007" lon="7.25754">
        <ele>508.9</ele>
        <time>2023-11-29T15:10:58Z</time>
      </trkpt>
      <trkpt lat="48.66995" lon="7.25777">
        <ele>508.9</ele>
        <time>2023-11-29T15:11:07Z</time>
      </trkpt>
      <trkpt lat="48.66983" lon="7.25798">
        <ele>508.9</ele>
        <time>2023-11-29T15:11:14Z</time>
      </trkpt>
      <trkpt lat="48.6697" lon="7.2582">
        <ele>508.9</ele>
        <time>2023-11-29T15:11:22Z</time>
      </trkpt>
      <trkpt lat="48.66959" lon="7.25844">
        <ele>509</ele>
        <time>2023-11-29T15:11:32Z</time>
      </trkpt>
      <trkpt lat="48.66948" lon="7.25869">
        <ele>509.1</ele>
        <time>2023-11-29T15:11:41Z</time>
      </trkpt>
      <trkpt lat="48.66936" lon="7.25892">
        <ele>509.2</ele>
        <time>2023-11-29T15:11:50Z</time>
      </trkpt>
      <trkpt lat="48.66926" lon="7.25915">
        <ele>509.4</ele>
        <time>2023-11-29T15:11:59Z</time>
      </trkpt>
      <trkpt lat="48.6691" lon="7.25935">
        <ele>509.7</ele>
        <time>2023-11-29T15:12:06Z</time>
      </trkpt>
      <trkpt lat="48.66895" lon="7.25952">
        <ele>509.9</ele>
        <time>2023-11-29T15:12:13Z</time>
      </trkpt>
      <trkpt lat="48.66881" lon="7.25968">
        <ele>510.2</ele>
        <time>2023-11-29T15:12:25Z</time>
      </trkpt>
      <trkpt lat="48.66863" lon="7.25979">
        <ele>510.5</ele>
        <time>2023-11-29T15:12:34Z</time>
      </trkpt>
      <trkpt lat="48.66845" lon="7.25988">
        <ele>510.8</ele>
        <time>2023-11-29T15:12:42Z</time>
      </trkpt>
      <trkpt lat="48.66826" lon="7.25997">
        <ele>511.1</ele>
        <time>2023-11-29T15:12:50Z</time>
      </trkpt>
      <trkpt lat="48.66806" lon="7.25999">
        <ele>511.4</ele>
        <time>2023-11-29T15:12:57Z</time>
      </trkpt>
      <trkpt lat="48.66787" lon="7.26001">
        <ele>511.8</ele>
        <time>2023-11-29T15:13:03Z</time>
      </trkpt>
      <trkpt lat="48.66767" lon="7.26">
        <ele>512</ele>
        <time>2023-11-29T15:13:11Z</time>
      </trkpt>
      <trkpt lat="48.66749" lon="7.26">
        <ele>512.3</ele>
        <time>2023-11-29T15:13:18Z</time>
      </trkpt>
      <trkpt lat="48.6673" lon="7.25997">
        <ele>512.7</ele>
        <time>2023-11-29T15:13:27Z</time>
      </trkpt>
      <trkpt lat="48.66711" lon="7.25996">
        <ele>513.2</ele>
        <time>2023-11-29T15:13:36Z</time>
      </trkpt>
      <trkpt lat="48.66693" lon="7.25994">
        <ele>513.6</ele>
        <time>2023-11-29T15:13:47Z</time>
      </trkpt>
      <trkpt lat="48.66675" lon="7.25997">
        <ele>513.9</ele>
        <time>2023-11-29T15:13:58Z</time>
      </trkpt>
      <trkpt lat="48.66658" lon="7.26008">
        <ele>514.2</ele>
        <time>2023-11-29T15:14:07Z</time>
      </trkpt>
      <trkpt lat="48.6664" lon="7.26015">
        <ele>514.5</ele>
        <time>2023-11-29T15:14:16Z</time>
      </trkpt>
      <trkpt lat="48.66619" lon="7.26013">
        <ele>514.8</ele>
        <time>2023-11-29T15:14:24Z</time>
      </trkpt>
      <trkpt lat="48.66602" lon="7.26026">
        <ele>515.1</ele>
        <time>2023-11-29T15:14:32Z</time>
      </trkpt>
      <trkpt lat="48.66585" lon="7.26038">
        <ele>515.4</ele>
        <time>2023-11-29T15:14:39Z</time>
      </trkpt>
      <trkpt lat="48.6657" lon="7.26055">
        <ele>515.7</ele>
        <time>2023-11-29T15:14:50Z</time>
      </trkpt>
      <trkpt lat="48.66553" lon="7.2607">
        <ele>516</ele>
        <time>2023-11-29T15:14:56Z</time>
      </trkpt>
      <trkpt lat="48.66537" lon="7.26085">
        <ele>516.3</ele>
        <time>2023-11-29T15:15:04Z</time>
      </trkpt>
      <trkpt lat="48.66519" lon="7.261">
        <ele>516.6</ele>
        <time>2023-11-29T15:15:10Z</time>
      </trkpt>
      <trkpt lat="48.66503" lon="7.26116">
        <ele>517</ele>
        <time>2023-11-29T15:15:16Z</time>
      </trkpt>
      <trkpt lat="48.66488" lon="7.26133">
        <ele>517.3</ele>
        <time>2023-11-29T15:15:25Z</time>
      </trkpt>
      <trkpt lat="48.66475" lon="7.2615">
        <ele>517.7</ele>
        <time>2023-11-29T15:15:35Z</time>
      </trkpt>
      <trkpt lat="48.66458" lon="7.26166">
        <ele>518.1</ele>
        <time>2023-11-29T15:15:43Z</time>
      </trkpt>
      <trkpt lat="48.66443" lon="7.26185">
        <ele>518.7</ele>
        <time>2023-11-29T15:15:50Z</time>
      </trkpt>
      <trkpt lat="48.66428" lon="7.26202">
        <ele>519.1</ele>
        <time>2023-11-29T15:15:57Z</time>
      </trkpt>
      <trkpt lat="48.6641" lon="7.26217">
        <ele>519.6</ele>
        <time>2023-11-29T15:16:04Z</time>
      </trkpt>
      <trkpt lat="48.66392" lon="7.26228">
        <ele>519.7</ele>
        <time>2023-11-29T15:16:11Z</time>
      </trkpt>
      <trkpt lat="48.66375" lon="7.26237">
        <ele>519.7</ele>
        <time>2023-11-29T15:16:17Z</time>
      </trkpt>
      <trkpt lat="48.66356" lon="7.26241">
        <ele>520</ele>
        <time>2023-11-29T15:16:25Z</time>
      </trkpt>
      <trkpt lat="48.66349" lon="7.26242">
        <ele>520.1</ele>
        <time>2023-11-29T15:16:28Z</time>
      </trkpt>
      <trkpt lat="48.66335" lon="7.26243">
        <ele>520.3</ele>
        <time>2023-11-29T15:16:49Z</time>
      </trkpt>
      <trkpt lat="48.66353" lon="7.26236">
        <ele>520</ele>
        <time>2023-11-29T15:17:01Z</time>
      </trkpt>
      <trkpt lat="48.66373" lon="7.26233">
        <ele>519.7</ele>
        <time>2023-11-29T15:17:12Z</time>
      </trkpt>
      <trkpt lat="48.6639" lon="7.26225">
        <ele>519.7</ele>
        <time>2023-11-29T15:17:20Z</time>
      </trkpt>
      <trkpt lat="48.66407" lon="7.26212">
        <ele>519.6</ele>
        <time>2023-11-29T15:17:29Z</time>
      </trkpt>
      <trkpt lat="48.66424" lon="7.26195">
        <ele>519.2</ele>
        <time>2023-11-29T15:17:39Z</time>
      </trkpt>
      <trkpt lat="48.66437" lon="7.26175">
        <ele>518.7</ele>
        <time>2023-11-29T15:17:50Z</time>
      </trkpt>
      <trkpt lat="48.66452" lon="7.26157">
        <ele>518.2</ele>
        <time>2023-11-29T15:18:01Z</time>
      </trkpt>
      <trkpt lat="48.66467" lon="7.26141">
        <ele>517.7</ele>
        <time>2023-11-29T15:18:11Z</time>
      </trkpt>
      <trkpt lat="48.66483" lon="7.26127">
        <ele>517.4</ele>
        <time>2023-11-29T15:18:21Z</time>
      </trkpt>
      <trkpt lat="48.66494" lon="7.26105">
        <ele>517</ele>
        <time>2023-11-29T15:18:29Z</time>
      </trkpt>
      <trkpt lat="48.66509" lon="7.26088">
        <ele>516.7</ele>
        <time>2023-11-29T15:18:38Z</time>
      </trkpt>
      <trkpt lat="48.66524" lon="7.26072">
        <ele>516.3</ele>
        <time>2023-11-29T15:18:48Z</time>
      </trkpt>
      <trkpt lat="48.6654" lon="7.26057">
        <ele>516</ele>
        <time>2023-11-29T15:19:02Z</time>
      </trkpt>
      <trkpt lat="48.66556" lon="7.26043">
        <ele>515.8</ele>
        <time>2023-11-29T15:19:13Z</time>
      </trkpt>
      <trkpt lat="48.66574" lon="7.26031">
        <ele>515.5</ele>
        <time>2023-11-29T15:19:22Z</time>
      </trkpt>
      <trkpt lat="48.66591" lon="7.26021">
        <ele>515.2</ele>
        <time>2023-11-29T15:19:30Z</time>
      </trkpt>
      <trkpt lat="48.66611" lon="7.26015">
        <ele>514.9</ele>
        <time>2023-11-29T15:19:38Z</time>
      </trkpt>
      <trkpt lat="48.6663" lon="7.26006">
        <ele>514.6</ele>
        <time>2023-11-29T15:19:45Z</time>
      </trkpt>
      <trkpt lat="48.66651" lon="7.25999">
        <ele>514.3</ele>
        <time>2023-11-29T15:19:54Z</time>
      </trkpt>
      <trkpt lat="48.6667" lon="7.25995">
        <ele>513.9</ele>
        <time>2023-11-29T15:20:03Z</time>
      </trkpt>
      <trkpt lat="48.66689" lon="7.25989">
        <ele>513.6</ele>
        <time>2023-11-29T15:20:10Z</time>
      </trkpt>
      <trkpt lat="48.66708" lon="7.25984">
        <ele>513.2</ele>
        <time>2023-11-29T15:20:18Z</time>
      </trkpt>
      <trkpt lat="48.66726" lon="7.25982">
        <ele>512.7</ele>
        <time>2023-11-29T15:20:26Z</time>
      </trkpt>
      <trkpt lat="48.66744" lon="7.25985">
        <ele>512.3</ele>
        <time>2023-11-29T15:20:33Z</time>
      </trkpt>
      <trkpt lat="48.66763" lon="7.25985">
        <ele>512</ele>
        <time>2023-11-29T15:20:44Z</time>
      </trkpt>
      <trkpt lat="48.6678" lon="7.25988">
        <ele>511.8</ele>
        <time>2023-11-29T15:20:55Z</time>
      </trkpt>
      <trkpt lat="48.66798" lon="7.2599">
        <ele>511.5</ele>
        <time>2023-11-29T15:21:05Z</time>
      </trkpt>
      <trkpt lat="48.66815" lon="7.25988">
        <ele>511.2</ele>
        <time>2023-11-29T15:21:15Z</time>
      </trkpt>
      <trkpt lat="48.66819" lon="7.2599">
        <ele>511.2</ele>
        <time>2023-11-29T15:21:24Z</time>
      </trkpt>
      <trkpt lat="48.6682" lon="7.25989">
        <ele>511.1</ele>
        <time>2023-11-29T15:21:25Z</time>
      </trkpt>
      <trkpt lat="48.66839" lon="7.25983">
        <ele>510.9</ele>
        <time>2023-11-29T15:21:38Z</time>
      </trkpt>
      <trkpt lat="48.66857" lon="7.25972">
        <ele>510.5</ele>
        <time>2023-11-29T15:21:49Z</time>
      </trkpt>
      <trkpt lat="48.66873" lon="7.25959">
        <ele>510.2</ele>
        <time>2023-11-29T15:21:59Z</time>
      </trkpt>
      <trkpt lat="48.66892" lon="7.25948">
        <ele>509.9</ele>
        <time>2023-11-29T15:22:07Z</time>
      </trkpt>
      <trkpt lat="48.66904" lon="7.25928">
        <ele>509.7</ele>
        <time>2023-11-29T15:22:15Z</time>
      </trkpt>
      <trkpt lat="48.66916" lon="7.25908">
        <ele>509.4</ele>
        <time>2023-11-29T15:22:22Z</time>
      </trkpt>
      <trkpt lat="48.6693" lon="7.25888">
        <ele>509.2</ele>
        <time>2023-11-29T15:22:32Z</time>
      </trkpt>
      <trkpt lat="48.66941" lon="7.25865">
        <ele>509.1</ele>
        <time>2023-11-29T15:22:41Z</time>
      </trkpt>
      <trkpt lat="48.66953" lon="7.25843">
        <ele>509</ele>
        <time>2023-11-29T15:22:50Z</time>
      </trkpt>
      <trkpt lat="48.66966" lon="7.25821">
        <ele>508.9</ele>
        <time>2023-11-29T15:22:59Z</time>
      </trkpt>
      <trkpt lat="48.66977" lon="7.25797">
        <ele>508.9</ele>
        <time>2023-11-29T15:23:07Z</time>
      </trkpt>
      <trkpt lat="48.66986" lon="7.25773">
        <ele>508.9</ele>
        <time>2023-11-29T15:23:14Z</time>
      </trkpt>
      <trkpt lat="48.66999" lon="7.25753">
        <ele>508.9</ele>
        <time>2023-11-29T15:23:22Z</time>
      </trkpt>
      <trkpt lat="48.67011" lon="7.2573">
        <ele>508.9</ele>
        <time>2023-11-29T15:23:31Z</time>
      </trkpt>
      <trkpt lat="48.67023" lon="7.25709">
        <ele>508.9</ele>
        <time>2023-11-29T15:23:38Z</time>
      </trkpt>
      <trkpt lat="48.67034" lon="7.25687">
        <ele>508.9</ele>
        <time>2023-11-29T15:23:46Z</time>
      </trkpt>
      <trkpt lat="48.67048" lon="7.2567">
        <ele>509.2</ele>
        <time>2023-11-29T15:23:54Z</time>
      </trkpt>
      <trkpt lat="48.67063" lon="7.25649">
        <ele>509.3</ele>
        <time>2023-11-29T15:24:02Z</time>
      </trkpt>
      <trkpt lat="48.67079" lon="7.2563">
        <ele>509.2</ele>
        <time>2023-11-29T15:24:11Z</time>
      </trkpt>
      <trkpt lat="48.67094" lon="7.25612">
        <ele>509.1</ele>
        <time>2023-11-29T15:24:21Z</time>
      </trkpt>
      <trkpt lat="48.67095" lon="7.25611">
        <ele>509.1</ele>
        <time>2023-11-29T15:24:22Z</time>
      </trkpt>
      <trkpt lat="48.67103" lon="7.25618">
        <ele>509.1</ele>
        <time>2023-11-29T15:26:35Z</time>
      </trkpt>
      <trkpt lat="48.67099" lon="7.2562">
        <ele>509.1</ele>
        <time>2023-11-29T15:26:39Z</time>
      </trkpt>
      <trkpt lat="48.67097" lon="7.25622">
        <ele>509.1</ele>
        <time>2023-11-29T15:26:42Z</time>
      </trkpt>
      <trkpt lat="48.67093" lon="7.25627">
        <ele>509.1</ele>
        <time>2023-11-29T15:26:46Z</time>
      </trkpt>
      <trkpt lat="48.67081" lon="7.25643">
        <ele>509.2</ele>
        <time>2023-11-29T15:27:02Z</time>
      </trkpt>
      <trkpt lat="48.67079" lon="7.25648">
        <ele>509.2</ele>
        <time>2023-11-29T15:27:08Z</time>
      </trkpt>
      <trkpt lat="48.67079" lon="7.25648">
        <ele>509.2</ele>
        <time>2023-11-29T15:27:09Z</time>
      </trkpt>
      <trkpt lat="48.67077" lon="7.25649">
        <ele>509.2</ele>
        <time>2023-11-29T15:27:11Z</time>
      </trkpt>
      <trkpt lat="48.67061" lon="7.25663">
        <ele>509.3</ele>
        <time>2023-11-29T15:27:25Z</time>
      </trkpt>
      <trkpt lat="48.6706" lon="7.25664">
        <ele>509.3</ele>
        <time>2023-11-29T15:27:26Z</time>
      </trkpt>
      <trkpt lat="48.67053" lon="7.25675">
        <ele>509.2</ele>
        <time>2023-11-29T15:27:31Z</time>
      </trkpt>
      <trkpt lat="48.67039" lon="7.25692">
        <ele>509</ele>
        <time>2023-11-29T15:27:41Z</time>
      </trkpt>
      <trkpt lat="48.67025" lon="7.2571">
        <ele>508.9</ele>
        <time>2023-11-29T15:27:54Z</time>
      </trkpt>
      <trkpt lat="48.67013" lon="7.25732">
        <ele>508.9</ele>
        <time>2023-11-29T15:28:09Z</time>
      </trkpt>
      <trkpt lat="48.67007" lon="7.25744">
        <ele>508.9</ele>
        <time>2023-11-29T15:28:16Z</time>
      </trkpt>
      <trkpt lat="48.66993" lon="7.25763">
        <ele>508.9</ele>
        <time>2023-11-29T15:28:30Z</time>
      </trkpt>
      <trkpt lat="48.66988" lon="7.25786">
        <ele>508.9</ele>
        <time>2023-11-29T15:28:41Z</time>
      </trkpt>
      <trkpt lat="48.66986" lon="7.2579">
        <ele>508.9</ele>
        <time>2023-11-29T15:28:45Z</time>
      </trkpt>
      <trkpt lat="48.66986" lon="7.25788">
        <ele>508.9</ele>
        <time>2023-11-29T15:28:49Z</time>
      </trkpt>
      <trkpt lat="48.66985" lon="7.25782">
        <ele>508.9</ele>
        <time>2023-11-29T15:28:53Z</time>
      </trkpt>
      <trkpt lat="48.66996" lon="7.25758">
        <ele>508.9</ele>
        <time>2023-11-29T15:29:03Z</time>
      </trkpt>
      <trkpt lat="48.67008" lon="7.25736">
        <ele>508.9</ele>
        <time>2023-11-29T15:29:08Z</time>
      </trkpt>
      <trkpt lat="48.67018" lon="7.25712">
        <ele>508.9</ele>
        <time>2023-11-29T15:29:12Z</time>
      </trkpt>
      <trkpt lat="48.6703" lon="7.25691">
        <ele>508.9</ele>
        <time>2023-11-29T15:29:17Z</time>
      </trkpt>
      <trkpt lat="48.67046" lon="7.25671">
        <ele>509.1</ele>
        <time>2023-11-29T15:29:22Z</time>
      </trkpt>
      <trkpt lat="48.67062" lon="7.25655">
        <ele>509.3</ele>
        <time>2023-11-29T15:29:27Z</time>
      </trkpt>
      <trkpt lat="48.67077" lon="7.2564">
        <ele>509.2</ele>
        <time>2023-11-29T15:29:32Z</time>
      </trkpt>
      <trkpt lat="48.67094" lon="7.25623">
        <ele>509.1</ele>
        <time>2023-11-29T15:29:38Z</time>
      </trkpt>
      <trkpt lat="48.67101" lon="7.25617">
        <ele>509.1</ele>
        <time>2023-11-29T15:29:45Z</time>
      </trkpt>
      <trkpt lat="48.67101" lon="7.25617">
        <ele>509.1</ele>
        <time>2023-11-29T15:29:46Z</time>
      </trkpt>
      <trkpt lat="48.67099" lon="7.25618">
        <ele>509.1</ele>
        <time>2023-11-29T15:29:48Z</time>
      </trkpt>
      <trkpt lat="48.67082" lon="7.25638">
        <ele>509.2</ele>
        <time>2023-11-29T15:29:54Z</time>
      </trkpt>
      <trkpt lat="48.67066" lon="7.25654">
        <ele>509.3</ele>
        <time>2023-11-29T15:29:59Z</time>
      </trkpt>
      <trkpt lat="48.6705" lon="7.25672">
        <ele>509.2</ele>
        <time>2023-11-29T15:30:04Z</time>
      </trkpt>
      <trkpt lat="48.67035" lon="7.25694">
        <ele>508.9</ele>
        <time>2023-11-29T15:30:09Z</time>
      </trkpt>
      <trkpt lat="48.67024" lon="7.25716">
        <ele>508.9</ele>
        <time>2023-11-29T15:30:13Z</time>
      </trkpt>
      <trkpt lat="48.67008" lon="7.2574">
        <ele>508.9</ele>
        <time>2023-11-29T15:30:17Z</time>
      </trkpt>
      <trkpt lat="48.66997" lon="7.25762">
        <ele>508.9</ele>
        <time>2023-11-29T15:30:21Z</time>
      </trkpt>
      <trkpt lat="48.66986" lon="7.25783">
        <ele>508.9</ele>
        <time>2023-11-29T15:30:25Z</time>
      </trkpt>
      <trkpt lat="48.6697" lon="7.25808">
        <ele>508.9</ele>
        <time>2023-11-29T15:30:29Z</time>
      </trkpt>
      <trkpt lat="48.66957" lon="7.25833">
        <ele>508.9</ele>
        <time>2023-11-29T15:30:33Z</time>
      </trkpt>
      <trkpt lat="48.66945" lon="7.25857">
        <ele>509</ele>
        <time>2023-11-29T15:30:37Z</time>
      </trkpt>
      <trkpt lat="48.66931" lon="7.25877">
        <ele>509.2</ele>
        <time>2023-11-29T15:30:41Z</time>
      </trkpt>
      <trkpt lat="48.66919" lon="7.25899">
        <ele>509.4</ele>
        <time>2023-11-29T15:30:45Z</time>
      </trkpt>
      <trkpt lat="48.66907" lon="7.25921">
        <ele>509.6</ele>
        <time>2023-11-29T15:30:49Z</time>
      </trkpt>
      <trkpt lat="48.66893" lon="7.25943">
        <ele>509.9</ele>
        <time>2023-11-29T15:30:53Z</time>
      </trkpt>
      <trkpt lat="48.6688" lon="7.25966">
        <ele>510.2</ele>
        <time>2023-11-29T15:30:58Z</time>
      </trkpt>
      <trkpt lat="48.66862" lon="7.25981">
        <ele>510.6</ele>
        <time>2023-11-29T15:31:05Z</time>
      </trkpt>
      <trkpt lat="48.66841" lon="7.25989">
        <ele>510.9</ele>
        <time>2023-11-29T15:31:12Z</time>
      </trkpt>
      <trkpt lat="48.66822" lon="7.25994">
        <ele>511.2</ele>
        <time>2023-11-29T15:31:18Z</time>
      </trkpt>
      <trkpt lat="48.66803" lon="7.25998">
        <ele>511.5</ele>
        <time>2023-11-29T15:31:25Z</time>
      </trkpt>
      <trkpt lat="48.6678" lon="7.26">
        <ele>511.9</ele>
        <time>2023-11-29T15:31:31Z</time>
      </trkpt>
      <trkpt lat="48.66757" lon="7.25999">
        <ele>512.2</ele>
        <time>2023-11-29T15:31:35Z</time>
      </trkpt>
      <trkpt lat="48.66738" lon="7.26">
        <ele>512.6</ele>
        <time>2023-11-29T15:31:39Z</time>
      </trkpt>
      <trkpt lat="48.66718" lon="7.26001">
        <ele>513.1</ele>
        <time>2023-11-29T15:31:43Z</time>
      </trkpt>
      <trkpt lat="48.66697" lon="7.26003">
        <ele>513.6</ele>
        <time>2023-11-29T15:31:49Z</time>
      </trkpt>
      <trkpt lat="48.66676" lon="7.26009">
        <ele>514</ele>
        <time>2023-11-29T15:31:54Z</time>
      </trkpt>
      <trkpt lat="48.66657" lon="7.26014">
        <ele>514.3</ele>
        <time>2023-11-29T15:31:59Z</time>
      </trkpt>
      <trkpt lat="48.66635" lon="7.26021">
        <ele>514.6</ele>
        <time>2023-11-29T15:32:03Z</time>
      </trkpt>
      <trkpt lat="48.66618" lon="7.26031">
        <ele>514.9</ele>
        <time>2023-11-29T15:32:07Z</time>
      </trkpt>
      <trkpt lat="48.66597" lon="7.26044">
        <ele>515.3</ele>
        <time>2023-11-29T15:32:12Z</time>
      </trkpt>
      <trkpt lat="48.66577" lon="7.26057">
        <ele>515.6</ele>
        <time>2023-11-29T15:32:17Z</time>
      </trkpt>
      <trkpt lat="48.66558" lon="7.2607">
        <ele>515.9</ele>
        <time>2023-11-29T15:32:22Z</time>
      </trkpt>
      <trkpt lat="48.66542" lon="7.26086">
        <ele>516.2</ele>
        <time>2023-11-29T15:32:27Z</time>
      </trkpt>
      <trkpt lat="48.66527" lon="7.26105">
        <ele>516.5</ele>
        <time>2023-11-29T15:32:32Z</time>
      </trkpt>
      <trkpt lat="48.66511" lon="7.26117">
        <ele>516.8</ele>
        <time>2023-11-29T15:32:36Z</time>
      </trkpt>
      <trkpt lat="48.66494" lon="7.26133">
        <ele>517.2</ele>
        <time>2023-11-29T15:32:41Z</time>
      </trkpt>
      <trkpt lat="48.66479" lon="7.26148">
        <ele>517.6</ele>
        <time>2023-11-29T15:32:45Z</time>
      </trkpt>
      <trkpt lat="48.66464" lon="7.26164">
        <ele>518</ele>
        <time>2023-11-29T15:32:49Z</time>
      </trkpt>
      <trkpt lat="48.66449" lon="7.26185">
        <ele>518.5</ele>
        <time>2023-11-29T15:32:54Z</time>
      </trkpt>
      <trkpt lat="48.66432" lon="7.26202">
        <ele>519.1</ele>
        <time>2023-11-29T15:32:59Z</time>
      </trkpt>
      <trkpt lat="48.66413" lon="7.26215">
        <ele>519.5</ele>
        <time>2023-11-29T15:33:03Z</time>
      </trkpt>
      <trkpt lat="48.66396" lon="7.26228">
        <ele>519.7</ele>
        <time>2023-11-29T15:33:07Z</time>
      </trkpt>
      <trkpt lat="48.66378" lon="7.26235">
        <ele>519.7</ele>
        <time>2023-11-29T15:33:12Z</time>
      </trkpt>
      <trkpt lat="48.66358" lon="7.26238">
        <ele>519.7</ele>
        <time>2023-11-29T15:33:17Z</time>
      </trkpt>
      <trkpt lat="48.66339" lon="7.26244">
        <ele>519.9</ele>
        <time>2023-11-29T15:33:21Z</time>
      </trkpt>
      <trkpt lat="48.66321" lon="7.26248">
        <ele>520.2</ele>
        <time>2023-11-29T15:33:26Z</time>
      </trkpt>
      <trkpt lat="48.663" lon="7.26249">
        <ele>520.5</ele>
        <time>2023-11-29T15:33:31Z</time>
      </trkpt>
      <trkpt lat="48.66282" lon="7.2624">
        <ele>520.7</ele>
        <time>2023-11-29T15:33:41Z</time>
      </trkpt>
      <trkpt lat="48.66268" lon="7.26241">
        <ele>520.8</ele>
        <time>2023-11-29T15:33:47Z</time>
      </trkpt>
      <trkpt lat="48.66286" lon="7.2624">
        <ele>521</ele>
        <time>2023-11-29T15:34:00Z</time>
      </trkpt>
      <trkpt lat="48.66287" lon="7.26238">
        <ele>521</ele>
        <time>2023-11-29T15:34:04Z</time>
      </trkpt>
      <trkpt lat="48.66293" lon="7.26239">
        <ele>520.9</ele>
        <time>2023-11-29T15:34:15Z</time>
      </trkpt>
      <trkpt lat="48.66286" lon="7.2624">
        <ele>520.9</ele>
        <time>2023-11-29T15:34:20Z</time>
      </trkpt>
      <trkpt lat="48.6629" lon="7.26241">
        <ele>520.8</ele>
        <time>2023-11-29T15:34:22Z</time>
      </trkpt>
      <trkpt lat="48.66312" lon="7.26241">
        <ele>520.5</ele>
        <time>2023-11-29T15:34:28Z</time>
      </trkpt>
      <trkpt lat="48.66331" lon="7.26242">
        <ele>520.2</ele>
        <time>2023-11-29T15:34:33Z</time>
      </trkpt>
      <trkpt lat="48.66352" lon="7.26243">
        <ele>519.9</ele>
        <time>2023-11-29T15:34:38Z</time>
      </trkpt>
      <trkpt lat="48.66371" lon="7.26241">
        <ele>519.7</ele>
        <time>2023-11-29T15:34:42Z</time>
      </trkpt>
      <trkpt lat="48.66393" lon="7.26236">
        <ele>519.7</ele>
        <time>2023-11-29T15:34:47Z</time>
      </trkpt>
      <trkpt lat="48.66406" lon="7.26229">
        <ele>519.7</ele>
        <time>2023-11-29T15:34:50Z</time>
      </trkpt>
      <trkpt lat="48.66421" lon="7.26211">
        <ele>519.3</ele>
        <time>2023-11-29T15:34:54Z</time>
      </trkpt>
      <trkpt lat="48.66434" lon="7.26192">
        <ele>518.9</ele>
        <time>2023-11-29T15:34:58Z</time>
      </trkpt>
      <trkpt lat="48.66451" lon="7.26171">
        <ele>518.3</ele>
        <time>2023-11-29T15:35:03Z</time>
      </trkpt>
      <trkpt lat="48.66467" lon="7.26154">
        <ele>517.9</ele>
        <time>2023-11-29T15:35:08Z</time>
      </trkpt>
      <trkpt lat="48.66483" lon="7.26132">
        <ele>517.4</ele>
        <time>2023-11-29T15:35:13Z</time>
      </trkpt>
      <trkpt lat="48.66498" lon="7.26109">
        <ele>517</ele>
        <time>2023-11-29T15:35:18Z</time>
      </trkpt>
      <trkpt lat="48.66504" lon="7.26101">
        <ele>516.8</ele>
        <time>2023-11-29T15:35:20Z</time>
      </trkpt>
      <trkpt lat="48.66521" lon="7.26082">
        <ele>516.5</ele>
        <time>2023-11-29T15:35:25Z</time>
      </trkpt>
      <trkpt lat="48.66538" lon="7.2606">
        <ele>516.1</ele>
        <time>2023-11-29T15:35:30Z</time>
      </trkpt>
      <trkpt lat="48.6655" lon="7.26046">
        <ele>515.9</ele>
        <time>2023-11-29T15:35:34Z</time>
      </trkpt>
      <trkpt lat="48.66556" lon="7.2604">
        <ele>515.8</ele>
        <time>2023-11-29T15:35:36Z</time>
      </trkpt>
      <trkpt lat="48.66573" lon="7.26028">
        <ele>515.5</ele>
        <time>2023-11-29T15:35:40Z</time>
      </trkpt>
      <trkpt lat="48.66591" lon="7.26016">
        <ele>515.2</ele>
        <time>2023-11-29T15:35:45Z</time>
      </trkpt>
      <trkpt lat="48.666" lon="7.26013">
        <ele>515.1</ele>
        <time>2023-11-29T15:35:47Z</time>
      </trkpt>
      <trkpt lat="48.66617" lon="7.26004">
        <ele>514.8</ele>
        <time>2023-11-29T15:35:52Z</time>
      </trkpt>
      <trkpt lat="48.66634" lon="7.25993">
        <ele>514.5</ele>
        <time>2023-11-29T15:35:57Z</time>
      </trkpt>
      <trkpt lat="48.66654" lon="7.25987">
        <ele>514.2</ele>
        <time>2023-11-29T15:36:02Z</time>
      </trkpt>
      <trkpt lat="48.66675" lon="7.25983">
        <ele>513.9</ele>
        <time>2023-11-29T15:36:07Z</time>
      </trkpt>
      <trkpt lat="48.66694" lon="7.25981">
        <ele>513.6</ele>
        <time>2023-11-29T15:36:10Z</time>
      </trkpt>
      <trkpt lat="48.66715" lon="7.25984">
        <ele>513.1</ele>
        <time>2023-11-29T15:36:13Z</time>
      </trkpt>
      <trkpt lat="48.66738" lon="7.25987">
        <ele>512.5</ele>
        <time>2023-11-29T15:36:17Z</time>
      </trkpt>
      <trkpt lat="48.66758" lon="7.25991">
        <ele>512.1</ele>
        <time>2023-11-29T15:36:21Z</time>
      </trkpt>
      <trkpt lat="48.66778" lon="7.25993">
        <ele>511.9</ele>
        <time>2023-11-29T15:36:25Z</time>
      </trkpt>
      <trkpt lat="48.66801" lon="7.2599">
        <ele>511.5</ele>
        <time>2023-11-29T15:36:29Z</time>
      </trkpt>
      <trkpt lat="48.6682" lon="7.25986">
        <ele>511.2</ele>
        <time>2023-11-29T15:36:33Z</time>
      </trkpt>
      <trkpt lat="48.66841" lon="7.25979">
        <ele>510.9</ele>
        <time>2023-11-29T15:36:37Z</time>
      </trkpt>
      <trkpt lat="48.66852" lon="7.25971">
        <ele>510.7</ele>
        <time>2023-11-29T15:36:40Z</time>
      </trkpt>
      <trkpt lat="48.66872" lon="7.25952">
        <ele>510.3</ele>
        <time>2023-11-29T15:36:44Z</time>
      </trkpt>
      <trkpt lat="48.6689" lon="7.25932">
        <ele>510</ele>
        <time>2023-11-29T15:36:48Z</time>
      </trkpt>
      <trkpt lat="48.66906" lon="7.25912">
        <ele>509.7</ele>
        <time>2023-11-29T15:36:52Z</time>
      </trkpt>
      <trkpt lat="48.66922" lon="7.25894">
        <ele>509.4</ele>
        <time>2023-11-29T15:36:56Z</time>
      </trkpt>
      <trkpt lat="48.66928" lon="7.25884">
        <ele>509.3</ele>
        <time>2023-11-29T15:36:58Z</time>
      </trkpt>
      <trkpt lat="48.66941" lon="7.25864">
        <ele>509.1</ele>
        <time>2023-11-29T15:37:02Z</time>
      </trkpt>
      <trkpt lat="48.66954" lon="7.25844">
        <ele>509</ele>
        <time>2023-11-29T15:37:06Z</time>
      </trkpt>
      <trkpt lat="48.66957" lon="7.25838">
        <ele>509</ele>
        <time>2023-11-29T15:37:07Z</time>
      </trkpt>
      <trkpt lat="48.66969" lon="7.25816">
        <ele>508.9</ele>
        <time>2023-11-29T15:37:11Z</time>
      </trkpt>
      <trkpt lat="48.66979" lon="7.25793">
        <ele>508.9</ele>
        <time>2023-11-29T15:37:15Z</time>
      </trkpt>
      <trkpt lat="48.66993" lon="7.25768">
        <ele>508.9</ele>
        <time>2023-11-29T15:37:20Z</time>
      </trkpt>
      <trkpt lat="48.67007" lon="7.25741">
        <ele>508.9</ele>
        <time>2023-11-29T15:37:25Z</time>
      </trkpt>
      <trkpt lat="48.67017" lon="7.25717">
        <ele>508.9</ele>
        <time>2023-11-29T15:37:29Z</time>
      </trkpt>
      <trkpt lat="48.6703" lon="7.2569">
        <ele>508.9</ele>
        <time>2023-11-29T15:37:34Z</time>
      </trkpt>
      <trkpt lat="48.67043" lon="7.25673">
        <ele>508.9</ele>
        <time>2023-11-29T15:37:38Z</time>
      </trkpt>
      <trkpt lat="48.67047" lon="7.25669">
        <ele>509</ele>
        <time>2023-11-29T15:37:39Z</time>
      </trkpt>
      <trkpt lat="48.67063" lon="7.25654">
        <ele>509.2</ele>
        <time>2023-11-29T15:37:43Z</time>
      </trkpt>
      <trkpt lat="48.67078" lon="7.25637">
        <ele>509.3</ele>
        <time>2023-11-29T15:37:47Z</time>
      </trkpt>
      <trkpt lat="48.67094" lon="7.25622">
        <ele>509.2</ele>
        <time>2023-11-29T15:37:52Z</time>
      </trkpt>
      <trkpt lat="48.671" lon="7.25615">
        <ele>509.2</ele>
        <time>2023-11-29T15:37:59Z</time>
      </trkpt>
      <trkpt lat="48.67098" lon="7.25615">
        <ele>509.2</ele>
        <time>2023-11-29T15:38:02Z</time>
      </trkpt>
      <trkpt lat="48.67093" lon="7.25619">
        <ele>509.1</ele>
        <time>2023-11-29T15:38:08Z</time>
      </trkpt>
      <trkpt lat="48.67092" lon="7.2562">
        <ele>509.1</ele>
        <time>2023-11-29T15:38:10Z</time>
      </trkpt>
      <trkpt lat="48.67093" lon="7.2562">
        <ele>509.1</ele>
        <time>2023-11-29T15:38:13Z</time>
      </trkpt>
      <trkpt lat="48.67089" lon="7.25625">
        <ele>509.2</ele>
        <time>2023-11-29T15:38:19Z</time>
      </trkpt>
      <trkpt lat="48.6708" lon="7.25636">
        <ele>509.2</ele>
        <time>2023-11-29T15:38:29Z</time>
      </trkpt>
      <trkpt lat="48.67085" lon="7.25634">
        <ele>509.2</ele>
        <time>2023-11-29T15:38:34Z</time>
      </trkpt>
      <trkpt lat="48.67085" lon="7.25635">
        <ele>509.2</ele>
        <time>2023-11-29T15:38:35Z</time>
      </trkpt>
      <trkpt lat="48.67071" lon="7.25653">
        <ele>509.3</ele>
        <time>2023-11-29T15:38:42Z</time>
      </trkpt>
      <trkpt lat="48.67054" lon="7.25673">
        <ele>509</ele>
        <time>2023-11-29T15:38:47Z</time>
      </trkpt>
      <trkpt lat="48.67039" lon="7.25696">
        <ele>508.9</ele>
        <time>2023-11-29T15:38:52Z</time>
      </trkpt>
      <trkpt lat="48.67025" lon="7.25721">
        <ele>508.9</ele>
        <time>2023-11-29T15:38:56Z</time>
      </trkpt>
      <trkpt lat="48.67011" lon="7.25741">
        <ele>508.9</ele>
        <time>2023-11-29T15:39:00Z</time>
      </trkpt>
      <trkpt lat="48.66998" lon="7.2576">
        <ele>508.9</ele>
        <time>2023-11-29T15:39:04Z</time>
      </trkpt>
      <trkpt lat="48.66984" lon="7.25786">
        <ele>508.9</ele>
        <time>2023-11-29T15:39:09Z</time>
      </trkpt>
      <trkpt lat="48.66967" lon="7.25806">
        <ele>508.9</ele>
        <time>2023-11-29T15:39:13Z</time>
      </trkpt>
      <trkpt lat="48.66952" lon="7.25825">
        <ele>509</ele>
        <time>2023-11-29T15:39:17Z</time>
      </trkpt>
      <trkpt lat="48.66942" lon="7.25849">
        <ele>509.1</ele>
        <time>2023-11-29T15:39:21Z</time>
      </trkpt>
      <trkpt lat="48.66927" lon="7.25871">
        <ele>509.2</ele>
        <time>2023-11-29T15:39:25Z</time>
      </trkpt>
      <trkpt lat="48.66914" lon="7.25893">
        <ele>509.5</ele>
        <time>2023-11-29T15:39:29Z</time>
      </trkpt>
      <trkpt lat="48.66904" lon="7.25917">
        <ele>509.7</ele>
        <time>2023-11-29T15:39:33Z</time>
      </trkpt>
      <trkpt lat="48.6689" lon="7.25937">
        <ele>510</ele>
        <time>2023-11-29T15:39:37Z</time>
      </trkpt>
      <trkpt lat="48.6688" lon="7.2596">
        <ele>510.3</ele>
        <time>2023-11-29T15:39:42Z</time>
      </trkpt>
      <trkpt lat="48.66865" lon="7.25979">
        <ele>510.6</ele>
        <time>2023-11-29T15:39:50Z</time>
      </trkpt>
      <trkpt lat="48.66848" lon="7.25996">
        <ele>510.9</ele>
        <time>2023-11-29T15:39:58Z</time>
      </trkpt>
      <trkpt lat="48.66828" lon="7.26">
        <ele>511.2</ele>
        <time>2023-11-29T15:40:05Z</time>
      </trkpt>
      <trkpt lat="48.66807" lon="7.25996">
        <ele>511.6</ele>
        <time>2023-11-29T15:40:11Z</time>
      </trkpt>
      <trkpt lat="48.66787" lon="7.25998">
        <ele>511.9</ele>
        <time>2023-11-29T15:40:17Z</time>
      </trkpt>
      <trkpt lat="48.66764" lon="7.26">
        <ele>512.2</ele>
        <time>2023-11-29T15:40:21Z</time>
      </trkpt>
      <trkpt lat="48.66744" lon="7.26002">
        <ele>512.6</ele>
        <time>2023-11-29T15:40:24Z</time>
      </trkpt>
      <trkpt lat="48.6672" lon="7.26003">
        <ele>513.2</ele>
        <time>2023-11-29T15:40:28Z</time>
      </trkpt>
      <trkpt lat="48.66701" lon="7.26003">
        <ele>513.6</ele>
        <time>2023-11-29T15:40:32Z</time>
      </trkpt>
      <trkpt lat="48.66682" lon="7.26005">
        <ele>513.9</ele>
        <time>2023-11-29T15:40:36Z</time>
      </trkpt>
      <trkpt lat="48.66663" lon="7.26013">
        <ele>514.2</ele>
        <time>2023-11-29T15:40:42Z</time>
      </trkpt>
      <trkpt lat="48.66646" lon="7.26025">
        <ele>514.5</ele>
        <time>2023-11-29T15:40:47Z</time>
      </trkpt>
      <trkpt lat="48.66622" lon="7.26034">
        <ele>514.9</ele>
        <time>2023-11-29T15:40:52Z</time>
      </trkpt>
      <trkpt lat="48.666" lon="7.26046">
        <ele>515.3</ele>
        <time>2023-11-29T15:40:57Z</time>
      </trkpt>
      <trkpt lat="48.6658" lon="7.26056">
        <ele>515.6</ele>
        <time>2023-11-29T15:41:01Z</time>
      </trkpt>
      <trkpt lat="48.66562" lon="7.26064">
        <ele>515.9</ele>
        <time>2023-11-29T15:41:05Z</time>
      </trkpt>
      <trkpt lat="48.66544" lon="7.26076">
        <ele>516.1</ele>
        <time>2023-11-29T15:41:09Z</time>
      </trkpt>
      <trkpt lat="48.66527" lon="7.26097">
        <ele>516.5</ele>
        <time>2023-11-29T15:41:14Z</time>
      </trkpt>
      <trkpt lat="48.66516" lon="7.2612">
        <ele>516.8</ele>
        <time>2023-11-29T15:41:19Z</time>
      </trkpt>
      <trkpt lat="48.66505" lon="7.26142">
        <ele>517.2</ele>
        <time>2023-11-29T15:41:24Z</time>
      </trkpt>
      <trkpt lat="48.6649" lon="7.26164">
        <ele>517.6</ele>
        <time>2023-11-29T15:41:29Z</time>
      </trkpt>
      <trkpt lat="48.66476" lon="7.26182">
        <ele>518</ele>
        <time>2023-11-29T15:41:33Z</time>
      </trkpt>
      <trkpt lat="48.66459" lon="7.26199">
        <ele>518.5</ele>
        <time>2023-11-29T15:41:37Z</time>
      </trkpt>
      <trkpt lat="48.66441" lon="7.2621">
        <ele>519</ele>
        <time>2023-11-29T15:41:40Z</time>
      </trkpt>
      <trkpt lat="48.66423" lon="7.26225">
        <ele>519.5</ele>
        <time>2023-11-29T15:41:44Z</time>
      </trkpt>
      <trkpt lat="48.66403" lon="7.26236">
        <ele>519.7</ele>
        <time>2023-11-29T15:41:49Z</time>
      </trkpt>
      <trkpt lat="48.66382" lon="7.26246">
        <ele>519.7</ele>
        <time>2023-11-29T15:41:55Z</time>
      </trkpt>
      <trkpt lat="48.66361" lon="7.26252">
        <ele>519.9</ele>
        <time>2023-11-29T15:42:01Z</time>
      </trkpt>
      <trkpt lat="48.6634" lon="7.26253">
        <ele>520.2</ele>
        <time>2023-11-29T15:42:06Z</time>
      </trkpt>
      <trkpt lat="48.6633" lon="7.26252">
        <ele>520.4</ele>
        <time>2023-11-29T15:42:08Z</time>
      </trkpt>
      <trkpt lat="48.66311" lon="7.26248">
        <ele>520.7</ele>
        <time>2023-11-29T15:42:11Z</time>
      </trkpt>
      <trkpt lat="48.66291" lon="7.26244">
        <ele>520.9</ele>
        <time>2023-11-29T15:42:17Z</time>
      </trkpt>
      <trkpt lat="48.66272" lon="7.26243">
        <ele>521.2</ele>
        <time>2023-11-29T15:42:26Z</time>
      </trkpt>
      <trkpt lat="48.66271" lon="7.26244">
        <ele>521.2</ele>
        <time>2023-11-29T15:42:27Z</time>
      </trkpt>
      <trkpt lat="48.66269" lon="7.26244">
        <ele>521.3</ele>
        <time>2023-11-29T15:42:29Z</time>
      </trkpt>
      <trkpt lat="48.66269" lon="7.26243">
        <ele>521.3</ele>
        <time>2023-11-29T15:42:32Z</time>
      </trkpt>
      <trkpt lat="48.66281" lon="7.26244">
        <ele>521.1</ele>
        <time>2023-11-29T15:42:47Z</time>
      </trkpt>
      <trkpt lat="48.66279" lon="7.26243">
        <ele>521.1</ele>
        <time>2023-11-29T15:42:49Z</time>
      </trkpt>
      <trkpt lat="48.66276" lon="7.26242">
        <ele>521</ele>
        <time>2023-11-29T15:42:52Z</time>
      </trkpt>
      <trkpt lat="48.66272" lon="7.26241">
        <ele>521</ele>
        <time>2023-11-29T15:42:58Z</time>
      </trkpt>
      <trkpt lat="48.66277" lon="7.26244">
        <ele>520.9</ele>
        <time>2023-11-29T15:43:01Z</time>
      </trkpt>
      <trkpt lat="48.66297" lon="7.26246">
        <ele>520.7</ele>
        <time>2023-11-29T15:43:06Z</time>
      </trkpt>
      <trkpt lat="48.66319" lon="7.26246">
        <ele>520.4</ele>
        <time>2023-11-29T15:43:11Z</time>
      </trkpt>
      <trkpt lat="48.66338" lon="7.26246">
        <ele>520.1</ele>
        <time>2023-11-29T15:43:15Z</time>
      </trkpt>
      <trkpt lat="48.66357" lon="7.26243">
        <ele>519.8</ele>
        <time>2023-11-29T15:43:19Z</time>
      </trkpt>
      <trkpt lat="48.66376" lon="7.26238">
        <ele>519.7</ele>
        <time>2023-11-29T15:43:23Z</time>
      </trkpt>
      <trkpt lat="48.66395" lon="7.2623">
        <ele>519.7</ele>
        <time>2023-11-29T15:43:27Z</time>
      </trkpt>
      <trkpt lat="48.66415" lon="7.26216">
        <ele>519.5</ele>
        <time>2023-11-29T15:43:32Z</time>
      </trkpt>
      <trkpt lat="48.66433" lon="7.26195">
        <ele>519</ele>
        <time>2023-11-29T15:43:37Z</time>
      </trkpt>
      <trkpt lat="48.66447" lon="7.26175">
        <ele>518.5</ele>
        <time>2023-11-29T15:43:41Z</time>
      </trkpt>
      <trkpt lat="48.66463" lon="7.2616">
        <ele>518</ele>
        <time>2023-11-29T15:43:45Z</time>
      </trkpt>
      <trkpt lat="48.66481" lon="7.26141">
        <ele>517.5</ele>
        <time>2023-11-29T15:43:50Z</time>
      </trkpt>
      <trkpt lat="48.66484" lon="7.26137">
        <ele>517.4</ele>
        <time>2023-11-29T15:43:51Z</time>
      </trkpt>
      <trkpt lat="48.665" lon="7.26116">
        <ele>517</ele>
        <time>2023-11-29T15:43:56Z</time>
      </trkpt>
      <trkpt lat="48.66516" lon="7.26097">
        <ele>516.6</ele>
        <time>2023-11-29T15:44:01Z</time>
      </trkpt>
      <trkpt lat="48.66532" lon="7.2608">
        <ele>516.3</ele>
        <time>2023-11-29T15:44:06Z</time>
      </trkpt>
      <trkpt lat="48.66548" lon="7.26067">
        <ele>516</ele>
        <time>2023-11-29T15:44:10Z</time>
      </trkpt>
      <trkpt lat="48.66566" lon="7.26049">
        <ele>515.7</ele>
        <time>2023-11-29T15:44:15Z</time>
      </trkpt>
      <trkpt lat="48.66577" lon="7.26036">
        <ele>515.5</ele>
        <time>2023-11-29T15:44:19Z</time>
      </trkpt>
      <trkpt lat="48.66583" lon="7.26031">
        <ele>515.4</ele>
        <time>2023-11-29T15:44:21Z</time>
      </trkpt>
      <trkpt lat="48.66604" lon="7.26019">
        <ele>515</ele>
        <time>2023-11-29T15:44:26Z</time>
      </trkpt>
      <trkpt lat="48.66621" lon="7.26009">
        <ele>514.8</ele>
        <time>2023-11-29T15:44:30Z</time>
      </trkpt>
      <trkpt lat="48.6664" lon="7.25999">
        <ele>514.4</ele>
        <time>2023-11-29T15:44:34Z</time>
      </trkpt>
      <trkpt lat="48.66645" lon="7.25997">
        <ele>514.4</ele>
        <time>2023-11-29T15:44:35Z</time>
      </trkpt>
      <trkpt lat="48.66664" lon="7.25993">
        <ele>514</ele>
        <time>2023-11-29T15:44:40Z</time>
      </trkpt>
      <trkpt lat="48.66667" lon="7.25992">
        <ele>514</ele>
        <time>2023-11-29T15:44:41Z</time>
      </trkpt>
      <trkpt lat="48.6669" lon="7.25988">
        <ele>513.6</ele>
        <time>2023-11-29T15:44:46Z</time>
      </trkpt>
      <trkpt lat="48.66709" lon="7.25987">
        <ele>513.2</ele>
        <time>2023-11-29T15:44:49Z</time>
      </trkpt>
      <trkpt lat="48.66728" lon="7.25987">
        <ele>512.7</ele>
        <time>2023-11-29T15:44:53Z</time>
      </trkpt>
      <trkpt lat="48.66749" lon="7.25988">
        <ele>512.2</ele>
        <time>2023-11-29T15:44:58Z</time>
      </trkpt>
      <trkpt lat="48.6677" lon="7.25987">
        <ele>511.9</ele>
        <time>2023-11-29T15:45:02Z</time>
      </trkpt>
      <trkpt lat="48.66791" lon="7.25986">
        <ele>511.6</ele>
        <time>2023-11-29T15:45:07Z</time>
      </trkpt>
      <trkpt lat="48.66812" lon="7.25981">
        <ele>511.3</ele>
        <time>2023-11-29T15:45:12Z</time>
      </trkpt>
      <trkpt lat="48.66836" lon="7.25976">
        <ele>510.9</ele>
        <time>2023-11-29T15:45:16Z</time>
      </trkpt>
      <trkpt lat="48.66857" lon="7.25972">
        <ele>510.6</ele>
        <time>2023-11-29T15:45:20Z</time>
      </trkpt>
      <trkpt lat="48.66874" lon="7.25957">
        <ele>510.2</ele>
        <time>2023-11-29T15:45:24Z</time>
      </trkpt>
      <trkpt lat="48.6689" lon="7.25933">
        <ele>509.9</ele>
        <time>2023-11-29T15:45:29Z</time>
      </trkpt>
      <trkpt lat="48.66907" lon="7.25911">
        <ele>509.6</ele>
        <time>2023-11-29T15:45:33Z</time>
      </trkpt>
      <trkpt lat="48.66921" lon="7.25891">
        <ele>509.3</ele>
        <time>2023-11-29T15:45:37Z</time>
      </trkpt>
      <trkpt lat="48.66935" lon="7.25868">
        <ele>509.1</ele>
        <time>2023-11-29T15:45:41Z</time>
      </trkpt>
      <trkpt lat="48.6695" lon="7.25841">
        <ele>509</ele>
        <time>2023-11-29T15:45:46Z</time>
      </trkpt>
      <trkpt lat="48.66956" lon="7.2583">
        <ele>509</ele>
        <time>2023-11-29T15:45:48Z</time>
      </trkpt>
      <trkpt lat="48.66965" lon="7.25815">
        <ele>508.9</ele>
        <time>2023-11-29T15:45:51Z</time>
      </trkpt>
      <trkpt lat="48.66979" lon="7.25797">
        <ele>508.9</ele>
        <time>2023-11-29T15:45:55Z</time>
      </trkpt>
      <trkpt lat="48.66992" lon="7.2577">
        <ele>508.9</ele>
        <time>2023-11-29T15:46:00Z</time>
      </trkpt>
      <trkpt lat="48.66995" lon="7.25766">
        <ele>508.9</ele>
        <time>2023-11-29T15:46:01Z</time>
      </trkpt>
      <trkpt lat="48.67008" lon="7.25742">
        <ele>508.9</ele>
        <time>2023-11-29T15:46:06Z</time>
      </trkpt>
      <trkpt lat="48.67013" lon="7.2573">
        <ele>508.9</ele>
        <time>2023-11-29T15:46:08Z</time>
      </trkpt>
      <trkpt lat="48.67022" lon="7.25706">
        <ele>508.9</ele>
        <time>2023-11-29T15:46:12Z</time>
      </trkpt>
      <trkpt lat="48.67031" lon="7.25691">
        <ele>508.9</ele>
        <time>2023-11-29T15:46:15Z</time>
      </trkpt>
      <trkpt lat="48.67038" lon="7.25683">
        <ele>509</ele>
        <time>2023-11-29T15:46:17Z</time>
      </trkpt>
      <trkpt lat="48.67045" lon="7.25675">
        <ele>509.1</ele>
        <time>2023-11-29T15:46:18Z</time>
      </trkpt>
      <trkpt lat="48.67052" lon="7.25668">
        <ele>509.2</ele>
        <time>2023-11-29T15:46:21Z</time>
      </trkpt>
      <trkpt lat="48.67069" lon="7.25655">
        <ele>509.3</ele>
        <time>2023-11-29T15:46:26Z</time>
      </trkpt>
      <trkpt lat="48.67082" lon="7.25641">
        <ele>509.2</ele>
        <time>2023-11-29T15:46:37Z</time>
      </trkpt>
      <trkpt lat="48.67079" lon="7.25639">
        <ele>509.2</ele>
        <time>2023-11-29T15:46:41Z</time>
      </trkpt>
      <trkpt lat="48.67078" lon="7.2564">
        <ele>509.2</ele>
        <time>2023-11-29T15:46:45Z</time>
      </trkpt>
      <trkpt lat="48.67078" lon="7.25641">
        <ele>509.2</ele>
        <time>2023-11-29T15:46:48Z</time>
      </trkpt>
      <trkpt lat="48.67077" lon="7.25644">
        <ele>509.2</ele>
        <time>2023-11-29T15:46:52Z</time>
      </trkpt>
      <trkpt lat="48.67074" lon="7.25647">
        <ele>509.3</ele>
        <time>2023-11-29T15:46:55Z</time>
      </trkpt>
      <trkpt lat="48.67068" lon="7.2565">
        <ele>509.3</ele>
        <time>2023-11-29T15:47:00Z</time>
      </trkpt>
      <trkpt lat="48.67066" lon="7.25652">
        <ele>509.3</ele>
        <time>2023-11-29T15:47:04Z</time>
      </trkpt>
      <trkpt lat="48.67064" lon="7.25653">
        <ele>509.3</ele>
        <time>2023-11-29T15:47:09Z</time>
      </trkpt>
      <trkpt lat="48.67061" lon="7.25657">
        <ele>509.3</ele>
        <time>2023-11-29T15:47:12Z</time>
      </trkpt>
      <trkpt lat="48.67044" lon="7.2567">
        <ele>509.1</ele>
        <time>2023-11-29T15:47:17Z</time>
      </trkpt>
      <trkpt lat="48.67028" lon="7.25693">
        <ele>508.9</ele>
        <time>2023-11-29T15:47:22Z</time>
      </trkpt>
      <trkpt lat="48.67017" lon="7.25716">
        <ele>508.9</ele>
        <time>2023-11-29T15:47:26Z</time>
      </trkpt>
      <trkpt lat="48.67001" lon="7.25736">
        <ele>508.9</ele>
        <time>2023-11-29T15:47:30Z</time>
      </trkpt>
      <trkpt lat="48.66986" lon="7.25756">
        <ele>508.9</ele>
        <time>2023-11-29T15:47:34Z</time>
      </trkpt>
      <trkpt lat="48.66971" lon="7.25777">
        <ele>508.9</ele>
        <time>2023-11-29T15:47:38Z</time>
      </trkpt>
      <trkpt lat="48.66951" lon="7.25796">
        <ele>508.9</ele>
        <time>2023-11-29T15:47:42Z</time>
      </trkpt>
      <trkpt lat="48.66938" lon="7.25817">
        <ele>509</ele>
        <time>2023-11-29T15:47:46Z</time>
      </trkpt>
      <trkpt lat="48.66929" lon="7.25843">
        <ele>509.1</ele>
        <time>2023-11-29T15:47:50Z</time>
      </trkpt>
      <trkpt lat="48.66916" lon="7.25865">
        <ele>509.3</ele>
        <time>2023-11-29T15:47:54Z</time>
      </trkpt>
      <trkpt lat="48.66904" lon="7.2589">
        <ele>509.5</ele>
        <time>2023-11-29T15:47:59Z</time>
      </trkpt>
      <trkpt lat="48.6689" lon="7.2591">
        <ele>509.8</ele>
        <time>2023-11-29T15:48:04Z</time>
      </trkpt>
      <trkpt lat="48.66877" lon="7.25933">
        <ele>510.1</ele>
        <time>2023-11-29T15:48:09Z</time>
      </trkpt>
      <trkpt lat="48.66865" lon="7.25956">
        <ele>510.4</ele>
        <time>2023-11-29T15:48:14Z</time>
      </trkpt>
      <trkpt lat="48.66852" lon="7.25977">
        <ele>510.7</ele>
        <time>2023-11-29T15:48:21Z</time>
      </trkpt>
      <trkpt lat="48.66833" lon="7.25992">
        <ele>511.1</ele>
        <time>2023-11-29T15:48:28Z</time>
      </trkpt>
      <trkpt lat="48.66816" lon="7.26003">
        <ele>511.4</ele>
        <time>2023-11-29T15:48:33Z</time>
      </trkpt>
      <trkpt lat="48.66796" lon="7.26009">
        <ele>511.7</ele>
        <time>2023-11-29T15:48:40Z</time>
      </trkpt>
      <trkpt lat="48.66776" lon="7.26014">
        <ele>512</ele>
        <time>2023-11-29T15:48:46Z</time>
      </trkpt>
      <trkpt lat="48.66757" lon="7.26013">
        <ele>512.3</ele>
        <time>2023-11-29T15:48:50Z</time>
      </trkpt>
      <trkpt lat="48.66734" lon="7.2601">
        <ele>512.8</ele>
        <time>2023-11-29T15:48:55Z</time>
      </trkpt>
      <trkpt lat="48.66714" lon="7.26009">
        <ele>513.3</ele>
        <time>2023-11-29T15:49:00Z</time>
      </trkpt>
      <trkpt lat="48.66698" lon="7.26025">
        <ele>513.7</ele>
        <time>2023-11-29T15:49:07Z</time>
      </trkpt>
      <trkpt lat="48.66679" lon="7.26036">
        <ele>514</ele>
        <time>2023-11-29T15:49:14Z</time>
      </trkpt>
      <trkpt lat="48.66661" lon="7.26049">
        <ele>514.3</ele>
        <time>2023-11-29T15:49:19Z</time>
      </trkpt>
      <trkpt lat="48.66643" lon="7.26063">
        <ele>514.7</ele>
        <time>2023-11-29T15:49:24Z</time>
      </trkpt>
      <trkpt lat="48.66617" lon="7.26072">
        <ele>515.1</ele>
        <time>2023-11-29T15:49:28Z</time>
      </trkpt>
      <trkpt lat="48.66589" lon="7.2607">
        <ele>515.5</ele>
        <time>2023-11-29T15:49:31Z</time>
      </trkpt>
      <trkpt lat="48.66566" lon="7.26078">
        <ele>515.9</ele>
        <time>2023-11-29T15:49:35Z</time>
      </trkpt>
      <trkpt lat="48.6655" lon="7.26095">
        <ele>516.2</ele>
        <time>2023-11-29T15:49:39Z</time>
      </trkpt>
      <trkpt lat="48.66533" lon="7.26117">
        <ele>516.5</ele>
        <time>2023-11-29T15:49:44Z</time>
      </trkpt>
      <trkpt lat="48.66517" lon="7.26132">
        <ele>516.9</ele>
        <time>2023-11-29T15:49:48Z</time>
      </trkpt>
      <trkpt lat="48.66497" lon="7.26149">
        <ele>517.3</ele>
        <time>2023-11-29T15:49:53Z</time>
      </trkpt>
      <trkpt lat="48.66481" lon="7.26167">
        <ele>517.7</ele>
        <time>2023-11-29T15:49:57Z</time>
      </trkpt>
      <trkpt lat="48.66468" lon="7.26191">
        <ele>518.2</ele>
        <time>2023-11-29T15:50:02Z</time>
      </trkpt>
      <trkpt lat="48.66451" lon="7.26205">
        <ele>518.7</ele>
        <time>2023-11-29T15:50:06Z</time>
      </trkpt>
      <trkpt lat="48.66432" lon="7.26218">
        <ele>519.2</ele>
        <time>2023-11-29T15:50:10Z</time>
      </trkpt>
      <trkpt lat="48.66414" lon="7.2623">
        <ele>519.6</ele>
        <time>2023-11-29T15:50:15Z</time>
      </trkpt>
      <trkpt lat="48.66395" lon="7.26241">
        <ele>519.7</ele>
        <time>2023-11-29T15:50:20Z</time>
      </trkpt>
      <trkpt lat="48.66373" lon="7.26248">
        <ele>519.8</ele>
        <time>2023-11-29T15:50:25Z</time>
      </trkpt>
      <trkpt lat="48.66353" lon="7.2625">
        <ele>520</ele>
        <time>2023-11-29T15:50:29Z</time>
      </trkpt>
      <trkpt lat="48.66334" lon="7.26252">
        <ele>520.3</ele>
        <time>2023-11-29T15:50:33Z</time>
      </trkpt>
      <trkpt lat="48.66308" lon="7.26253">
        <ele>520.7</ele>
        <time>2023-11-29T15:50:38Z</time>
      </trkpt>
      <trkpt lat="48.66288" lon="7.2625">
        <ele>521</ele>
        <time>2023-11-29T15:50:42Z</time>
      </trkpt>
      <trkpt lat="48.66268" lon="7.26247">
        <ele>521.3</ele>
        <time>2023-11-29T15:50:48Z</time>
      </trkpt>
      <trkpt lat="48.66259" lon="7.26244">
        <ele>521.4</ele>
        <time>2023-11-29T15:50:54Z</time>
      </trkpt>
      <trkpt lat="48.66253" lon="7.26242">
        <ele>521.5</ele>
        <time>2023-11-29T15:50:56Z</time>
      </trkpt>
      <trkpt lat="48.66252" lon="7.2624">
        <ele>521.5</ele>
        <time>2023-11-29T15:50:58Z</time>
      </trkpt>
      <trkpt lat="48.66253" lon="7.26239">
        <ele>521.6</ele>
        <time>2023-11-29T15:51:01Z</time>
      </trkpt>
      <trkpt lat="48.66272" lon="7.26241">
        <ele>521.3</ele>
        <time>2023-11-29T15:51:20Z</time>
      </trkpt>
      <trkpt lat="48.66272" lon="7.2624">
        <ele>521.2</ele>
        <time>2023-11-29T15:51:24Z</time>
      </trkpt>
      <trkpt lat="48.66269" lon="7.2624">
        <ele>521.2</ele>
        <time>2023-11-29T15:51:28Z</time>
      </trkpt>
      <trkpt lat="48.66277" lon="7.26244">
        <ele>521.1</ele>
        <time>2023-11-29T15:51:35Z</time>
      </trkpt>
      <trkpt lat="48.66297" lon="7.26245">
        <ele>520.8</ele>
        <time>2023-11-29T15:51:41Z</time>
      </trkpt>
      <trkpt lat="48.66315" lon="7.26245">
        <ele>520.6</ele>
        <time>2023-11-29T15:51:45Z</time>
      </trkpt>
      <trkpt lat="48.66334" lon="7.26243">
        <ele>520.3</ele>
        <time>2023-11-29T15:51:49Z</time>
      </trkpt>
      <trkpt lat="48.66354" lon="7.26242">
        <ele>519.9</ele>
        <time>2023-11-29T15:51:53Z</time>
      </trkpt>
      <trkpt lat="48.66373" lon="7.26237">
        <ele>519.7</ele>
        <time>2023-11-29T15:51:57Z</time>
      </trkpt>
      <trkpt lat="48.66392" lon="7.26228">
        <ele>519.7</ele>
        <time>2023-11-29T15:52:01Z</time>
      </trkpt>
      <trkpt lat="48.6641" lon="7.26207">
        <ele>519.5</ele>
        <time>2023-11-29T15:52:06Z</time>
      </trkpt>
      <trkpt lat="48.66422" lon="7.26187">
        <ele>519.1</ele>
        <time>2023-11-29T15:52:10Z</time>
      </trkpt>
      <trkpt lat="48.66438" lon="7.26165">
        <ele>518.5</ele>
        <time>2023-11-29T15:52:15Z</time>
      </trkpt>
      <trkpt lat="48.66454" lon="7.26149">
        <ele>518</ele>
        <time>2023-11-29T15:52:19Z</time>
      </trkpt>
      <trkpt lat="48.66472" lon="7.2613">
        <ele>517.6</ele>
        <time>2023-11-29T15:52:24Z</time>
      </trkpt>
      <trkpt lat="48.66491" lon="7.26115">
        <ele>517.1</ele>
        <time>2023-11-29T15:52:29Z</time>
      </trkpt>
      <trkpt lat="48.66507" lon="7.26101">
        <ele>516.8</ele>
        <time>2023-11-29T15:52:33Z</time>
      </trkpt>
      <trkpt lat="48.66524" lon="7.26086">
        <ele>516.5</ele>
        <time>2023-11-29T15:52:37Z</time>
      </trkpt>
      <trkpt lat="48.66542" lon="7.26077">
        <ele>516.1</ele>
        <time>2023-11-29T15:52:41Z</time>
      </trkpt>
      <trkpt lat="48.66559" lon="7.2606">
        <ele>515.8</ele>
        <time>2023-11-29T15:52:46Z</time>
      </trkpt>
      <trkpt lat="48.66576" lon="7.2604">
        <ele>515.5</ele>
        <time>2023-11-29T15:52:51Z</time>
      </trkpt>
      <trkpt lat="48.66594" lon="7.26025">
        <ele>515.2</ele>
        <time>2023-11-29T15:52:56Z</time>
      </trkpt>
      <trkpt lat="48.66613" lon="7.26021">
        <ele>514.9</ele>
        <time>2023-11-29T15:53:01Z</time>
      </trkpt>
      <trkpt lat="48.66633" lon="7.26013">
        <ele>514.6</ele>
        <time>2023-11-29T15:53:06Z</time>
      </trkpt>
      <trkpt lat="48.66653" lon="7.26011">
        <ele>514.3</ele>
        <time>2023-11-29T15:53:11Z</time>
      </trkpt>
      <trkpt lat="48.66675" lon="7.2601">
        <ele>514</ele>
        <time>2023-11-29T15:53:16Z</time>
      </trkpt>
      <trkpt lat="48.66694" lon="7.26011">
        <ele>513.6</ele>
        <time>2023-11-29T15:53:19Z</time>
      </trkpt>
      <trkpt lat="48.66714" lon="7.26013">
        <ele>513.1</ele>
        <time>2023-11-29T15:53:23Z</time>
      </trkpt>
      <trkpt lat="48.66734" lon="7.26018">
        <ele>512.7</ele>
        <time>2023-11-29T15:53:27Z</time>
      </trkpt>
      <trkpt lat="48.66755" lon="7.26021">
        <ele>512.2</ele>
        <time>2023-11-29T15:53:32Z</time>
      </trkpt>
      <trkpt lat="48.66778" lon="7.26021">
        <ele>511.9</ele>
        <time>2023-11-29T15:53:37Z</time>
      </trkpt>
      <trkpt lat="48.66796" lon="7.26017">
        <ele>511.6</ele>
        <time>2023-11-29T15:53:41Z</time>
      </trkpt>
      <trkpt lat="48.66815" lon="7.26011">
        <ele>511.3</ele>
        <time>2023-11-29T15:53:45Z</time>
      </trkpt>
      <trkpt lat="48.66835" lon="7.26005">
        <ele>511</ele>
        <time>2023-11-29T15:53:49Z</time>
      </trkpt>
      <trkpt lat="48.66855" lon="7.25993">
        <ele>510.7</ele>
        <time>2023-11-29T15:53:53Z</time>
      </trkpt>
      <trkpt lat="48.6687" lon="7.25967">
        <ele>510.3</ele>
        <time>2023-11-29T15:53:57Z</time>
      </trkpt>
      <trkpt lat="48.66887" lon="7.25941">
        <ele>509.9</ele>
        <time>2023-11-29T15:54:01Z</time>
      </trkpt>
      <trkpt lat="48.66903" lon="7.25917">
        <ele>509.6</ele>
        <time>2023-11-29T15:54:05Z</time>
      </trkpt>
      <trkpt lat="48.66914" lon="7.25894">
        <ele>509.4</ele>
        <time>2023-11-29T15:54:09Z</time>
      </trkpt>
      <trkpt lat="48.66928" lon="7.25872">
        <ele>509.2</ele>
        <time>2023-11-29T15:54:13Z</time>
      </trkpt>
      <trkpt lat="48.66941" lon="7.25849">
        <ele>509</ele>
        <time>2023-11-29T15:54:17Z</time>
      </trkpt>
      <trkpt lat="48.66948" lon="7.25838">
        <ele>509</ele>
        <time>2023-11-29T15:54:19Z</time>
      </trkpt>
      <trkpt lat="48.66959" lon="7.25816">
        <ele>508.9</ele>
        <time>2023-11-29T15:54:23Z</time>
      </trkpt>
      <trkpt lat="48.66963" lon="7.25812">
        <ele>508.9</ele>
        <time>2023-11-29T15:54:24Z</time>
      </trkpt>
      <trkpt lat="48.6697" lon="7.25802">
        <ele>508.9</ele>
        <time>2023-11-29T15:54:26Z</time>
      </trkpt>
      <trkpt lat="48.6698" lon="7.25779">
        <ele>508.9</ele>
        <time>2023-11-29T15:54:30Z</time>
      </trkpt>
      <trkpt lat="48.6699" lon="7.25754">
        <ele>508.9</ele>
        <time>2023-11-29T15:54:34Z</time>
      </trkpt>
      <trkpt lat="48.67001" lon="7.2573">
        <ele>508.9</ele>
        <time>2023-11-29T15:54:38Z</time>
      </trkpt>
      <trkpt lat="48.67012" lon="7.25708">
        <ele>508.9</ele>
        <time>2023-11-29T15:54:42Z</time>
      </trkpt>
      <trkpt lat="48.67026" lon="7.25686">
        <ele>508.9</ele>
        <time>2023-11-29T15:54:47Z</time>
      </trkpt>
      <trkpt lat="48.67034" lon="7.25678">
        <ele>509</ele>
        <time>2023-11-29T15:54:49Z</time>
      </trkpt>
      <trkpt lat="48.67038" lon="7.25675">
        <ele>509</ele>
        <time>2023-11-29T15:54:50Z</time>
      </trkpt>
      <trkpt lat="48.67058" lon="7.25663">
        <ele>509.3</ele>
        <time>2023-11-29T15:54:55Z</time>
      </trkpt>
      <trkpt lat="48.67076" lon="7.25651">
        <ele>509.2</ele>
        <time>2023-11-29T15:55:01Z</time>
      </trkpt>
      <trkpt lat="48.67089" lon="7.25631">
        <ele>509.2</ele>
        <time>2023-11-29T15:55:11Z</time>
      </trkpt>
      <trkpt lat="48.67098" lon="7.25625">
        <ele>509.1</ele>
        <time>2023-11-29T15:55:19Z</time>
      </trkpt>
      <trkpt lat="48.67097" lon="7.25627">
        <ele>509.1</ele>
        <time>2023-11-29T15:55:21Z</time>
      </trkpt>
      <trkpt lat="48.67095" lon="7.2563">
        <ele>509.1</ele>
        <time>2023-11-29T15:55:25Z</time>
      </trkpt>
      <trkpt lat="48.67092" lon="7.25634">
        <ele>509.2</ele>
        <time>2023-11-29T15:55:29Z</time>
      </trkpt>
      <trkpt lat="48.6708" lon="7.25646">
        <ele>509.2</ele>
        <time>2023-11-29T15:55:40Z</time>
      </trkpt>
      <trkpt lat="48.67078" lon="7.25649">
        <ele>509.2</ele>
        <time>2023-11-29T15:55:42Z</time>
      </trkpt>
      <trkpt lat="48.6706" lon="7.25667">
        <ele>509.3</ele>
        <time>2023-11-29T15:55:48Z</time>
      </trkpt>
      <trkpt lat="48.67047" lon="7.25692">
        <ele>509.1</ele>
        <time>2023-11-29T15:55:53Z</time>
      </trkpt>
      <trkpt lat="48.67034" lon="7.25718">
        <ele>508.9</ele>
        <time>2023-11-29T15:55:58Z</time>
      </trkpt>
      <trkpt lat="48.67022" lon="7.25741">
        <ele>508.9</ele>
        <time>2023-11-29T15:56:02Z</time>
      </trkpt>
      <trkpt lat="48.67011" lon="7.25765">
        <ele>508.9</ele>
        <time>2023-11-29T15:56:06Z</time>
      </trkpt>
      <trkpt lat="48.66997" lon="7.25789">
        <ele>508.9</ele>
        <time>2023-11-29T15:56:10Z</time>
      </trkpt>
      <trkpt lat="48.66978" lon="7.25801">
        <ele>508.9</ele>
        <time>2023-11-29T15:56:13Z</time>
      </trkpt>
      <trkpt lat="48.6696" lon="7.25821">
        <ele>508.9</ele>
        <time>2023-11-29T15:56:17Z</time>
      </trkpt>
      <trkpt lat="48.66943" lon="7.25839">
        <ele>509</ele>
        <time>2023-11-29T15:56:21Z</time>
      </trkpt>
      <trkpt lat="48.66923" lon="7.25855">
        <ele>509.1</ele>
        <time>2023-11-29T15:56:25Z</time>
      </trkpt>
      <trkpt lat="48.66911" lon="7.25877">
        <ele>509.3</ele>
        <time>2023-11-29T15:56:29Z</time>
      </trkpt>
      <trkpt lat="48.66898" lon="7.25896">
        <ele>509.5</ele>
        <time>2023-11-29T15:56:33Z</time>
      </trkpt>
      <trkpt lat="48.66884" lon="7.25922">
        <ele>509.8</ele>
        <time>2023-11-29T15:56:38Z</time>
      </trkpt>
      <trkpt lat="48.66875" lon="7.25952">
        <ele>510.1</ele>
        <time>2023-11-29T15:56:43Z</time>
      </trkpt>
      <trkpt lat="48.6686" lon="7.25973">
        <ele>510.5</ele>
        <time>2023-11-29T15:56:49Z</time>
      </trkpt>
      <trkpt lat="48.66841" lon="7.25983">
        <ele>510.8</ele>
        <time>2023-11-29T15:56:55Z</time>
      </trkpt>
      <trkpt lat="48.66825" lon="7.26">
        <ele>511.1</ele>
        <time>2023-11-29T15:57:02Z</time>
      </trkpt>
      <trkpt lat="48.66804" lon="7.26007">
        <ele>511.5</ele>
        <time>2023-11-29T15:57:08Z</time>
      </trkpt>
      <trkpt lat="48.66785" lon="7.26006">
        <ele>511.8</ele>
        <time>2023-11-29T15:57:13Z</time>
      </trkpt>
      <trkpt lat="48.66766" lon="7.2601">
        <ele>512</ele>
        <time>2023-11-29T15:57:19Z</time>
      </trkpt>
      <trkpt lat="48.66746" lon="7.26008">
        <ele>512.4</ele>
        <time>2023-11-29T15:57:24Z</time>
      </trkpt>
      <trkpt lat="48.66726" lon="7.2601">
        <ele>512.8</ele>
        <time>2023-11-29T15:57:29Z</time>
      </trkpt>
      <trkpt lat="48.66709" lon="7.26016">
        <ele>513.2</ele>
        <time>2023-11-29T15:57:33Z</time>
      </trkpt>
      <trkpt lat="48.66689" lon="7.26023">
        <ele>513.7</ele>
        <time>2023-11-29T15:57:38Z</time>
      </trkpt>
      <trkpt lat="48.66668" lon="7.26023">
        <ele>514</ele>
        <time>2023-11-29T15:57:42Z</time>
      </trkpt>
      <trkpt lat="48.66649" lon="7.2603">
        <ele>514.3</ele>
        <time>2023-11-29T15:57:47Z</time>
      </trkpt>
      <trkpt lat="48.66628" lon="7.26041">
        <ele>514.7</ele>
        <time>2023-11-29T15:57:52Z</time>
      </trkpt>
      <trkpt lat="48.66612" lon="7.26059">
        <ele>517</ele>
        <time>2023-11-29T15:57:57Z</time>
      </trkpt>
      <trkpt lat="48.66603" lon="7.26087">
        <ele>522.9</ele>
        <time>2023-11-29T15:58:03Z</time>
      </trkpt>
      <trkpt lat="48.66598" lon="7.26116">
        <ele>528.4</ele>
        <time>2023-11-29T15:58:09Z</time>
      </trkpt>
      <trkpt lat="48.66589" lon="7.26143">
        <ele>531.9</ele>
        <time>2023-11-29T15:58:15Z</time>
      </trkpt>
      <trkpt lat="48.66576" lon="7.26166">
        <ele>533.7</ele>
        <time>2023-11-29T15:58:22Z</time>
      </trkpt>
      <trkpt lat="48.66556" lon="7.26191">
        <ele>535.4</ele>
        <time>2023-11-29T15:58:27Z</time>
      </trkpt>
      <trkpt lat="48.6653" lon="7.26209">
        <ele>535.2</ele>
        <time>2023-11-29T15:58:31Z</time>
      </trkpt>
      <trkpt lat="48.66521" lon="7.26233">
        <ele>537.8</ele>
        <time>2023-11-29T15:58:36Z</time>
      </trkpt>
      <trkpt lat="48.66476" lon="7.2624">
        <ele>531.2</ele>
        <time>2023-11-29T15:58:41Z</time>
      </trkpt>
      <trkpt lat="48.66447" lon="7.26235">
        <ele>523.7</ele>
        <time>2023-11-29T15:58:44Z</time>
      </trkpt>
      <trkpt lat="48.66422" lon="7.26236">
        <ele>521.1</ele>
        <time>2023-11-29T15:58:48Z</time>
      </trkpt>
      <trkpt lat="48.66398" lon="7.26239">
        <ele>519.7</ele>
        <time>2023-11-29T15:58:52Z</time>
      </trkpt>
      <trkpt lat="48.66377" lon="7.26242">
        <ele>519.7</ele>
        <time>2023-11-29T15:58:56Z</time>
      </trkpt>
      <trkpt lat="48.66358" lon="7.26246">
        <ele>519.9</ele>
        <time>2023-11-29T15:59:00Z</time>
      </trkpt>
      <trkpt lat="48.66338" lon="7.26253">
        <ele>520.2</ele>
        <time>2023-11-29T15:59:05Z</time>
      </trkpt>
      <trkpt lat="48.66317" lon="7.26258">
        <ele>520.6</ele>
        <time>2023-11-29T15:59:10Z</time>
      </trkpt>
      <trkpt lat="48.66299" lon="7.26254">
        <ele>520.8</ele>
        <time>2023-11-29T15:59:14Z</time>
      </trkpt>
      <trkpt lat="48.66281" lon="7.26248">
        <ele>521.1</ele>
        <time>2023-11-29T15:59:20Z</time>
      </trkpt>
      <trkpt lat="48.66261" lon="7.26247">
        <ele>521.3</ele>
        <time>2023-11-29T15:59:32Z</time>
      </trkpt>
      <trkpt lat="48.66262" lon="7.26245">
        <ele>521.4</ele>
        <time>2023-11-29T15:59:36Z</time>
      </trkpt>
      <trkpt lat="48.66281" lon="7.26241">
        <ele>521.1</ele>
        <time>2023-11-29T15:59:58Z</time>
      </trkpt>
      <trkpt lat="48.66283" lon="7.26242">
        <ele>521.1</ele>
        <time>2023-11-29T15:59:59Z</time>
      </trkpt>
      <trkpt lat="48.66304" lon="7.26243">
        <ele>520.8</ele>
        <time>2023-11-29T16:00:06Z</time>
      </trkpt>
      <trkpt lat="48.66325" lon="7.26243">
        <ele>520.5</ele>
        <time>2023-11-29T16:00:11Z</time>
      </trkpt>
      <trkpt lat="48.66344" lon="7.26244">
        <ele>520.2</ele>
        <time>2023-11-29T16:00:15Z</time>
      </trkpt>
      <trkpt lat="48.66364" lon="7.26242">
        <ele>519.9</ele>
        <time>2023-11-29T16:00:19Z</time>
      </trkpt>
      <trkpt lat="48.66384" lon="7.26238">
        <ele>519.7</ele>
        <time>2023-11-29T16:00:23Z</time>
      </trkpt>
      <trkpt lat="48.66404" lon="7.26233">
        <ele>519.7</ele>
        <time>2023-11-29T16:00:27Z</time>
      </trkpt>
      <trkpt lat="48.66422" lon="7.26213">
        <ele>519.4</ele>
        <time>2023-11-29T16:00:32Z</time>
      </trkpt>
      <trkpt lat="48.66437" lon="7.26189">
        <ele>518.8</ele>
        <time>2023-11-29T16:00:36Z</time>
      </trkpt>
      <trkpt lat="48.66452" lon="7.26164">
        <ele>518.3</ele>
        <time>2023-11-29T16:00:40Z</time>
      </trkpt>
      <trkpt lat="48.66466" lon="7.26147">
        <ele>517.8</ele>
        <time>2023-11-29T16:00:44Z</time>
      </trkpt>
      <trkpt lat="48.66485" lon="7.26129">
        <ele>517.4</ele>
        <time>2023-11-29T16:00:49Z</time>
      </trkpt>
      <trkpt lat="48.66497" lon="7.26117">
        <ele>517.1</ele>
        <time>2023-11-29T16:00:52Z</time>
      </trkpt>
      <trkpt lat="48.66512" lon="7.26099">
        <ele>516.7</ele>
        <time>2023-11-29T16:00:56Z</time>
      </trkpt>
      <trkpt lat="48.66528" lon="7.26085">
        <ele>516.4</ele>
        <time>2023-11-29T16:01:00Z</time>
      </trkpt>
      <trkpt lat="48.66544" lon="7.2607">
        <ele>516.1</ele>
        <time>2023-11-29T16:01:04Z</time>
      </trkpt>
      <trkpt lat="48.6656" lon="7.26053">
        <ele>515.8</ele>
        <time>2023-11-29T16:01:08Z</time>
      </trkpt>
      <trkpt lat="48.6657" lon="7.2604">
        <ele>515.6</ele>
        <time>2023-11-29T16:01:11Z</time>
      </trkpt>
      <trkpt lat="48.66588" lon="7.26024">
        <ele>515.3</ele>
        <time>2023-11-29T16:01:16Z</time>
      </trkpt>
      <trkpt lat="48.66609" lon="7.26016">
        <ele>515</ele>
        <time>2023-11-29T16:01:21Z</time>
      </trkpt>
      <trkpt lat="48.66628" lon="7.26009">
        <ele>514.7</ele>
        <time>2023-11-29T16:01:25Z</time>
      </trkpt>
      <trkpt lat="48.66647" lon="7.26005">
        <ele>514.4</ele>
        <time>2023-11-29T16:01:29Z</time>
      </trkpt>
      <trkpt lat="48.66666" lon="7.26004">
        <ele>514.1</ele>
        <time>2023-11-29T16:01:33Z</time>
      </trkpt>
      <trkpt lat="48.66686" lon="7.26006">
        <ele>513.8</ele>
        <time>2023-11-29T16:01:37Z</time>
      </trkpt>
      <trkpt lat="48.66706" lon="7.26007">
        <ele>513.3</ele>
        <time>2023-11-29T16:01:41Z</time>
      </trkpt>
      <trkpt lat="48.66724" lon="7.26008">
        <ele>512.9</ele>
        <time>2023-11-29T16:01:45Z</time>
      </trkpt>
      <trkpt lat="48.66746" lon="7.26016">
        <ele>512.4</ele>
        <time>2023-11-29T16:01:49Z</time>
      </trkpt>
      <trkpt lat="48.66767" lon="7.26016">
        <ele>512</ele>
        <time>2023-11-29T16:01:53Z</time>
      </trkpt>
      <trkpt lat="48.66788" lon="7.26018">
        <ele>511.8</ele>
        <time>2023-11-29T16:01:57Z</time>
      </trkpt>
      <trkpt lat="48.66809" lon="7.26012">
        <ele>511.4</ele>
        <time>2023-11-29T16:02:02Z</time>
      </trkpt>
      <trkpt lat="48.66831" lon="7.26005">
        <ele>511.1</ele>
        <time>2023-11-29T16:02:07Z</time>
      </trkpt>
      <trkpt lat="48.6685" lon="7.25992">
        <ele>510.8</ele>
        <time>2023-11-29T16:02:12Z</time>
      </trkpt>
      <trkpt lat="48.66868" lon="7.2597">
        <ele>510.4</ele>
        <time>2023-11-29T16:02:16Z</time>
      </trkpt>
      <trkpt lat="48.66883" lon="7.25955">
        <ele>510.1</ele>
        <time>2023-11-29T16:02:19Z</time>
      </trkpt>
      <trkpt lat="48.66901" lon="7.25933">
        <ele>509.7</ele>
        <time>2023-11-29T16:02:23Z</time>
      </trkpt>
      <trkpt lat="48.66917" lon="7.2591">
        <ele>509.4</ele>
        <time>2023-11-29T16:02:27Z</time>
      </trkpt>
      <trkpt lat="48.66929" lon="7.25884">
        <ele>509.2</ele>
        <time>2023-11-29T16:02:31Z</time>
      </trkpt>
      <trkpt lat="48.66941" lon="7.25862">
        <ele>509.1</ele>
        <time>2023-11-29T16:02:35Z</time>
      </trkpt>
      <trkpt lat="48.66956" lon="7.25839">
        <ele>509</ele>
        <time>2023-11-29T16:02:39Z</time>
      </trkpt>
      <trkpt lat="48.66968" lon="7.25815">
        <ele>508.9</ele>
        <time>2023-11-29T16:02:43Z</time>
      </trkpt>
      <trkpt lat="48.66979" lon="7.25792">
        <ele>508.9</ele>
        <time>2023-11-29T16:02:47Z</time>
      </trkpt>
      <trkpt lat="48.66992" lon="7.25768">
        <ele>508.9</ele>
        <time>2023-11-29T16:02:51Z</time>
      </trkpt>
      <trkpt lat="48.67001" lon="7.25738">
        <ele>508.9</ele>
        <time>2023-11-29T16:02:56Z</time>
      </trkpt>
      <trkpt lat="48.67012" lon="7.25709">
        <ele>508.9</ele>
        <time>2023-11-29T16:03:01Z</time>
      </trkpt>
      <trkpt lat="48.67027" lon="7.25684">
        <ele>508.9</ele>
        <time>2023-11-29T16:03:06Z</time>
      </trkpt>
      <trkpt lat="48.67034" lon="7.25675">
        <ele>509</ele>
        <time>2023-11-29T16:03:08Z</time>
      </trkpt>
      <trkpt lat="48.67054" lon="7.25657">
        <ele>509.3</ele>
        <time>2023-11-29T16:03:13Z</time>
      </trkpt>
      <trkpt lat="48.67073" lon="7.25642">
        <ele>509.2</ele>
        <time>2023-11-29T16:03:18Z</time>
      </trkpt>
      <trkpt lat="48.6709" lon="7.25628">
        <ele>509.2</ele>
        <time>2023-11-29T16:03:30Z</time>
      </trkpt>
      <trkpt lat="48.67091" lon="7.25631">
        <ele>509.2</ele>
        <time>2023-11-29T16:03:33Z</time>
      </trkpt>
      <trkpt lat="48.67076" lon="7.25648">
        <ele>509.2</ele>
        <time>2023-11-29T16:03:48Z</time>
      </trkpt>
      <trkpt lat="48.67076" lon="7.25649">
        <ele>509.2</ele>
        <time>2023-11-29T16:03:49Z</time>
      </trkpt>
      <trkpt lat="48.67074" lon="7.25653">
        <ele>509.3</ele>
        <time>2023-11-29T16:03:52Z</time>
      </trkpt>
      <trkpt lat="48.67074" lon="7.25655">
        <ele>509.3</ele>
        <time>2023-11-29T16:03:54Z</time>
      </trkpt>
      <trkpt lat="48.67059" lon="7.25674">
        <ele>509.2</ele>
        <time>2023-11-29T16:04:05Z</time>
      </trkpt>
      <trkpt lat="48.67046" lon="7.25694">
        <ele>509</ele>
        <time>2023-11-29T16:04:14Z</time>
      </trkpt>
      <trkpt lat="48.67035" lon="7.25717">
        <ele>508.9</ele>
        <time>2023-11-29T16:04:24Z</time>
      </trkpt>
      <trkpt lat="48.67025" lon="7.25742">
        <ele>508.9</ele>
        <time>2023-11-29T16:04:36Z</time>
      </trkpt>
      <trkpt lat="48.67024" lon="7.25744">
        <ele>508.9</ele>
        <time>2023-11-29T16:04:38Z</time>
      </trkpt>
      <trkpt lat="48.67023" lon="7.25742">
        <ele>508.9</ele>
        <time>2023-11-29T16:04:42Z</time>
      </trkpt>
      <trkpt lat="48.67022" lon="7.2574">
        <ele>508.9</ele>
        <time>2023-11-29T16:04:45Z</time>
      </trkpt>
      <trkpt lat="48.67021" lon="7.25737">
        <ele>508.9</ele>
        <time>2023-11-29T16:04:49Z</time>
      </trkpt>
      <trkpt lat="48.67024" lon="7.25709">
        <ele>508.9</ele>
        <time>2023-11-29T16:05:01Z</time>
      </trkpt>
      <trkpt lat="48.67037" lon="7.25687">
        <ele>509</ele>
        <time>2023-11-29T16:05:11Z</time>
      </trkpt>
      <trkpt lat="48.6705" lon="7.25666">
        <ele>509.2</ele>
        <time>2023-11-29T16:05:22Z</time>
      </trkpt>
      <trkpt lat="48.67068" lon="7.25655">
        <ele>509.3</ele>
        <time>2023-11-29T16:05:33Z</time>
      </trkpt>
      <trkpt lat="48.67084" lon="7.25638">
        <ele>509.2</ele>
        <time>2023-11-29T16:05:42Z</time>
      </trkpt>
      <trkpt lat="48.67098" lon="7.2562">
        <ele>509.1</ele>
        <time>2023-11-29T16:05:51Z</time>
      </trkpt>
      <trkpt lat="48.67112" lon="7.25602">
        <ele>508.9</ele>
        <time>2023-11-29T16:06:01Z</time>
      </trkpt>
      <trkpt lat="48.67131" lon="7.25594">
        <ele>508.7</ele>
        <time>2023-11-29T16:06:11Z</time>
      </trkpt>
      <trkpt lat="48.67134" lon="7.25594">
        <ele>508.7</ele>
        <time>2023-11-29T16:06:13Z</time>
      </trkpt>
      <trkpt lat="48.67152" lon="7.2559">
        <ele>508.4</ele>
        <time>2023-11-29T16:06:24Z</time>
      </trkpt>
      <trkpt lat="48.67171" lon="7.25593">
        <ele>507.8</ele>
        <time>2023-11-29T16:06:34Z</time>
      </trkpt>
      <trkpt lat="48.67189" lon="7.25602">
        <ele>506.3</ele>
        <time>2023-11-29T16:06:43Z</time>
      </trkpt>
      <trkpt lat="48.67207" lon="7.25609">
        <ele>504.6</ele>
        <time>2023-11-29T16:06:54Z</time>
      </trkpt>
      <trkpt lat="48.67222" lon="7.25594">
        <ele>503.3</ele>
        <time>2023-11-29T16:06:59Z</time>
      </trkpt>
      <trkpt lat="48.67233" lon="7.2557">
        <ele>502.2</ele>
        <time>2023-11-29T16:07:07Z</time>
      </trkpt>
      <trkpt lat="48.6724" lon="7.25543">
        <ele>501</ele>
        <time>2023-11-29T16:07:17Z</time>
      </trkpt>
      <trkpt lat="48.67252" lon="7.2552">
        <ele>499.7</ele>
        <time>2023-11-29T16:07:26Z</time>
      </trkpt>
      <trkpt lat="48.67264" lon="7.25498">
        <ele>498.2</ele>
        <time>2023-11-29T16:07:37Z</time>
      </trkpt>
      <trkpt lat="48.67277" lon="7.25476">
        <ele>496.5</ele>
        <time>2023-11-29T16:07:46Z</time>
      </trkpt>
      <trkpt lat="48.67291" lon="7.25456">
        <ele>495</ele>
        <time>2023-11-29T16:07:55Z</time>
      </trkpt>
      <trkpt lat="48.67303" lon="7.25433">
        <ele>493.8</ele>
        <time>2023-11-29T16:08:05Z</time>
      </trkpt>
      <trkpt lat="48.67314" lon="7.25416">
        <ele>493.2</ele>
        <time>2023-11-29T16:08:14Z</time>
      </trkpt>
      <trkpt lat="48.67318" lon="7.25425">
        <ele>492.4</ele>
        <time>2023-11-29T16:08:19Z</time>
      </trkpt>
      <trkpt lat="48.67318" lon="7.25454">
        <ele>490.9</ele>
        <time>2023-11-29T16:08:27Z</time>
      </trkpt>
      <trkpt lat="48.67315" lon="7.25483">
        <ele>489.3</ele>
        <time>2023-11-29T16:08:37Z</time>
      </trkpt>
      <trkpt lat="48.67308" lon="7.25509">
        <ele>487.7</ele>
        <time>2023-11-29T16:08:47Z</time>
      </trkpt>
      <trkpt lat="48.67303" lon="7.25536">
        <ele>486</ele>
        <time>2023-11-29T16:08:57Z</time>
      </trkpt>
      <trkpt lat="48.67299" lon="7.25565">
        <ele>484.3</ele>
        <time>2023-11-29T16:09:08Z</time>
      </trkpt>
      <trkpt lat="48.67294" lon="7.25591">
        <ele>482.7</ele>
        <time>2023-11-29T16:09:18Z</time>
      </trkpt>
      <trkpt lat="48.67287" lon="7.25618">
        <ele>481</ele>
        <time>2023-11-29T16:09:28Z</time>
      </trkpt>
      <trkpt lat="48.67287" lon="7.25647">
        <ele>478.9</ele>
        <time>2023-11-29T16:09:40Z</time>
      </trkpt>
      <trkpt lat="48.67294" lon="7.25675">
        <ele>476.4</ele>
        <time>2023-11-29T16:09:51Z</time>
      </trkpt>
      <trkpt lat="48.673" lon="7.25702">
        <ele>474</ele>
        <time>2023-11-29T16:10:01Z</time>
      </trkpt>
      <trkpt lat="48.67309" lon="7.25727">
        <ele>472.2</ele>
        <time>2023-11-29T16:10:10Z</time>
      </trkpt>
      <trkpt lat="48.67315" lon="7.25745">
        <ele>471.1</ele>
        <time>2023-11-29T16:10:17Z</time>
      </trkpt>
      <trkpt lat="48.67315" lon="7.25743">
        <ele>471.2</ele>
        <time>2023-11-29T16:10:20Z</time>
      </trkpt>
      <trkpt lat="48.67303" lon="7.25722">
        <ele>472.8</ele>
        <time>2023-11-29T16:10:31Z</time>
      </trkpt>
      <trkpt lat="48.67293" lon="7.25698">
        <ele>474.7</ele>
        <time>2023-11-29T16:10:44Z</time>
      </trkpt>
      <trkpt lat="48.67287" lon="7.2567">
        <ele>477</ele>
        <time>2023-11-29T16:10:56Z</time>
      </trkpt>
      <trkpt lat="48.67285" lon="7.25642">
        <ele>479.2</ele>
        <time>2023-11-29T16:11:08Z</time>
      </trkpt>
      <trkpt lat="48.67287" lon="7.25614">
        <ele>481.2</ele>
        <time>2023-11-29T16:11:20Z</time>
      </trkpt>
      <trkpt lat="48.67294" lon="7.25586">
        <ele>483</ele>
        <time>2023-11-29T16:11:31Z</time>
      </trkpt>
      <trkpt lat="48.67297" lon="7.25559">
        <ele>484.5</ele>
        <time>2023-11-29T16:11:41Z</time>
      </trkpt>
      <trkpt lat="48.67305" lon="7.25532">
        <ele>486.2</ele>
        <time>2023-11-29T16:11:53Z</time>
      </trkpt>
      <trkpt lat="48.6731" lon="7.25506">
        <ele>487.7</ele>
        <time>2023-11-29T16:12:04Z</time>
      </trkpt>
      <trkpt lat="48.67312" lon="7.25477">
        <ele>489.3</ele>
        <time>2023-11-29T16:12:15Z</time>
      </trkpt>
      <trkpt lat="48.67316" lon="7.25448">
        <ele>490.9</ele>
        <time>2023-11-29T16:12:27Z</time>
      </trkpt>
      <trkpt lat="48.67317" lon="7.2542">
        <ele>492.3</ele>
        <time>2023-11-29T16:12:39Z</time>
      </trkpt>
      <trkpt lat="48.6731" lon="7.25411">
        <ele>492.8</ele>
        <time>2023-11-29T16:12:46Z</time>
      </trkpt>
    </trkseg>
  </trk>
</gpx>